Wetterdaten: Sonntag, 08.06.2014
Datum Zeit Temp. Aussen +5cm Feuchte Auss Luftdruck Regen Sonnenschein Regendauer UV Solar Windben
08.06.2014 00:00 21,3 C 18,3 C 93 % 1014,5 hPa 0,0 l/m 0 min 0 min 0,0 UV-I 0 W/m 0,0 km/h (0 Bft)
08.06.2014 00:02 21,2 C 18,3 C 93 % 1014,5 hPa 0,0 l/m 0 min 0 min 0,0 UV-I 0 W/m 0,0 km/h (0 Bft)
08.06.2014 00:06 21,2 C 18,3 C 93 % 1014,5 hPa 0,0 l/m 0 min 0 min 0,0 UV-I 0 W/m 0,0 km/h (0 Bft)
08.06.2014 00:08 21,1 C 18,3 C 93 % 1014,5 hPa 0,0 l/m 0 min 0 min 0,0 UV-I 0 W/m 0,0 km/h (0 Bft)
08.06.2014 00:10 21,1 C 18,3 C 93 % 1014,5 hPa 0,0 l/m 0 min 0 min 0,0 UV-I 0 W/m 0,0 km/h (0 Bft)
08.06.2014 00:12 21,1 C 18,3 C 94 % 1014,4 hPa 0,0 l/m 0 min 0 min 0,0 UV-I 0 W/m 0,0 km/h (0 Bft)
08.06.2014 00:14 21,0 C 18,3 C 94 % 1014,4 hPa 0,0 l/m 0 min 0 min 0,0 UV-I 0 W/m 0,0 km/h (0 Bft)
08.06.2014 00:16 21,0 C 18,3 C 94 % 1014,5 hPa 0,0 l/m 0 min 0 min 0,0 UV-I 0 W/m 0,0 km/h (0 Bft)
08.06.2014 00:18 21,0 C 18,3 C 94 % 1014,5 hPa 0,0 l/m 0 min 0 min 0,0 UV-I 0 W/m 0,0 km/h (0 Bft)
08.06.2014 00:20 20,9 C 18,3 C 94 % 1014,5 hPa 0,0 l/m 0 min 0 min 0,0 UV-I 0 W/m 0,0 km/h (0 Bft)
08.06.2014 00:22 20,9 C 18,3 C 94 % 1014,5 hPa 0,0 l/m 0 min 0 min 0,0 UV-I 0 W/m 0,0 km/h (0 Bft)
08.06.2014 00:24 20,9 C 18,3 C 94 % 1014,5 hPa 0,0 l/m 0 min 0 min 0,0 UV-I 0 W/m 0,0 km/h (0 Bft)
08.06.2014 00:26 20,8 C 18,3 C 94 % 1014,5 hPa 0,0 l/m 0 min 0 min 0,0 UV-I 0 W/m 0,0 km/h (0 Bft)
08.06.2014 00:28 20,7 C 18,3 C 94 % 1014,6 hPa 0,0 l/m 0 min 0 min 0,0 UV-I 0 W/m 6,3 km/h (2 Bft)
08.06.2014 00:30 20,7 C 18,3 C 94 % 1014,5 hPa 0,0 l/m 0 min 0 min 0,0 UV-I 0 W/m 4,2 km/h (1 Bft)
08.06.2014 00:32 20,7 C 18,3 C 94 % 1014,5 hPa 0,0 l/m 0 min 0 min 0,0 UV-I 0 W/m 0,0 km/h (0 Bft)
08.06.2014 00:34 20,7 C 18,3 C 94 % 1014,5 hPa 0,0 l/m 0 min 0 min 0,0 UV-I 0 W/m 0,0 km/h (0 Bft)
08.06.2014 00:36 20,7 C 18,3 C 94 % 1014,6 hPa 0,0 l/m 0 min 0 min 0,0 UV-I 0 W/m 0,0 km/h (0 Bft)
08.06.2014 00:38 20,6 C 18,3 C 94 % 1014,6 hPa 0,0 l/m 0 min 0 min 0,0 UV-I 0 W/m 0,0 km/h (0 Bft)
08.06.2014 00:40 20,6 C 18,3 C 95 % 1014,6 hPa 0,0 l/m 0 min 0 min 0,0 UV-I 0 W/m 0,0 km/h (0 Bft)
08.06.2014 00:42 20,6 C 18,3 C 94 % 1014,6 hPa 0,0 l/m 0 min 0 min 0,0 UV-I 0 W/m 0,0 km/h (0 Bft)
08.06.2014 00:44 20,6 C 18,3 C 95 % 1014,6 hPa 0,0 l/m 0 min 0 min 0,0 UV-I 0 W/m 0,0 km/h (0 Bft)
08.06.2014 00:46 20,5 C 18,3 C 95 % 1014,6 hPa 0,0 l/m 0 min 0 min 0,0 UV-I 0 W/m 0,0 km/h (0 Bft)
08.06.2014 00:48 20,4 C 18,3 C 95 % 1014,7 hPa 0,0 l/m 0 min 0 min 0,0 UV-I 0 W/m 0,0 km/h (0 Bft)
08.06.2014 00:50 20,4 C 18,3 C 95 % 1014,7 hPa 0,0 l/m 0 min 0 min 0,0 UV-I 0 W/m 0,0 km/h (0 Bft)
08.06.2014 00:52 20,4 C 18,3 C 95 % 1014,7 hPa 0,0 l/m 0 min 0 min 0,0 UV-I 0 W/m 0,0 km/h (0 Bft)
08.06.2014 00:54 20,3 C 18,3 C 95 % 1014,7 hPa 0,0 l/m 0 min 0 min 0,0 UV-I 0 W/m 0,0 km/h (0 Bft)
08.06.2014 00:56 20,3 C 18,3 C 95 % 1014,8 hPa 0,0 l/m 0 min 0 min 0,0 UV-I 0 W/m 0,0 km/h (0 Bft)
08.06.2014 00:58 20,3 C 18,3 C 95 % 1014,7 hPa 0,0 l/m 0 min 0 min 0,0 UV-I 0 W/m 0,0 km/h (0 Bft)
08.06.2014 01:00 20,3 C 18,3 C 95 % 1014,7 hPa 0,0 l/m 0 min 0 min 0,0 UV-I 0 W/m 0,0 km/h (0 Bft)
08.06.2014 01:02 20,3 C 18,3 C 95 % 1014,7 hPa 0,0 l/m 0 min 0 min 0,0 UV-I 0 W/m 0,0 km/h (0 Bft)
08.06.2014 01:04 20,3 C 18,3 C 95 % 1014,6 hPa 0,0 l/m 0 min 0 min 0,0 UV-I 0 W/m 0,0 km/h (0 Bft)
08.06.2014 01:06 20,3 C 18,3 C 95 % 1014,6 hPa 0,0 l/m 0 min 0 min 0,0 UV-I 0 W/m 0,0 km/h (0 Bft)
08.06.2014 01:08 20,3 C 18,3 C 96 % 1014,7 hPa 0,0 l/m 0 min 0 min 0,0 UV-I 0 W/m 0,0 km/h (0 Bft)
08.06.2014 01:10 20,3 C 18,3 C 96 % 1014,7 hPa 0,0 l/m 0 min 0 min 0,0 UV-I 0 W/m 0,0 km/h (0 Bft)
08.06.2014 01:12 20,3 C 18,3 C 96 % 1014,7 hPa 0,0 l/m 0 min 0 min 0,0 UV-I 0 W/m 0,0 km/h (0 Bft)
08.06.2014 01:14 20,3 C 18,3 C 96 % 1014,7 hPa 0,0 l/m 0 min 0 min 0,0 UV-I 0 W/m 0,0 km/h (0 Bft)
08.06.2014 01:16 20,3 C 17,8 C 96 % 1014,8 hPa 0,0 l/m 0 min 0 min 0,0 UV-I 0 W/m 0,0 km/h (0 Bft)
08.06.2014 01:18 20,3 C 17,8 C 96 % 1014,8 hPa 0,0 l/m 0 min 0 min 0,0 UV-I 0 W/m 0,0 km/h (0 Bft)
08.06.2014 01:20 20,3 C 17,8 C 96 % 1014,7 hPa 0,0 l/m 0 min 0 min 0,0 UV-I 0 W/m 0,0 km/h (0 Bft)
08.06.2014 01:22 20,3 C 17,8 C 96 % 1014,7 hPa 0,0 l/m 0 min 0 min 0,0 UV-I 0 W/m 0,0 km/h (0 Bft)
08.06.2014 01:24 20,3 C 17,8 C 96 % 1014,8 hPa 0,0 l/m 0 min 0 min 0,0 UV-I 0 W/m 0,0 km/h (0 Bft)
08.06.2014 01:26 20,3 C 17,8 C 96 % 1014,7 hPa 0,0 l/m 0 min 0 min 0,0 UV-I 0 W/m 0,0 km/h (0 Bft)
08.06.2014 01:28 20,2 C 17,8 C 96 % 1014,7 hPa 0,0 l/m 0 min 0 min 0,0 UV-I 0 W/m 0,0 km/h (0 Bft)
08.06.2014 01:30 20,2 C 17,8 C 96 % 1014,7 hPa 0,0 l/m 0 min 0 min 0,0 UV-I 0 W/m 0,0 km/h (0 Bft)
08.06.2014 01:32 20,2 C 17,8 C 96 % 1014,6 hPa 0,0 l/m 0 min 0 min 0,0 UV-I 0 W/m 0,0 km/h (0 Bft)
08.06.2014 01:34 20,2 C 17,8 C 96 % 1014,6 hPa 0,0 l/m 0 min 0 min 0,0 UV-I 0 W/m 0,0 km/h (0 Bft)
08.06.2014 01:36 20,2 C 17,8 C 96 % 1014,5 hPa 0,0 l/m 0 min 0 min 0,0 UV-I 0 W/m 0,0 km/h (0 Bft)
08.06.2014 01:38 20,2 C 17,8 C 96 % 1014,5 hPa 0,0 l/m 0 min 0 min 0,0 UV-I 0 W/m 0,0 km/h (0 Bft)
08.06.2014 01:40 20,2 C 17,8 C 96 % 1014,6 hPa 0,0 l/m 0 min 0 min 0,0 UV-I 0 W/m 0,0 km/h (0 Bft)
08.06.2014 01:42 20,1 C 17,8 C 96 % 1014,7 hPa 0,0 l/m 0 min 0 min 0,0 UV-I 0 W/m 0,0 km/h (0 Bft)
08.06.2014 01:44 20,1 C 17,8 C 96 % 1014,7 hPa 0,0 l/m 0 min 0 min 0,0 UV-I 0 W/m 0,0 km/h (0 Bft)
08.06.2014 01:46 20,1 C 17,8 C 96 % 1014,7 hPa 0,0 l/m 0 min 0 min 0,0 UV-I 0 W/m 0,0 km/h (0 Bft)
08.06.2014 01:48 20,1 C 17,8 C 96 % 1014,7 hPa 0,0 l/m 0 min 0 min 0,0 UV-I 0 W/m 0,0 km/h (0 Bft)
08.06.2014 01:50 20,1 C 17,8 C 96 % 1014,7 hPa 0,0 l/m 0 min 0 min 0,0 UV-I 0 W/m 0,0 km/h (0 Bft)
08.06.2014 01:52 20,1 C 17,8 C 96 % 1014,6 hPa 0,0 l/m 0 min 0 min 0,0 UV-I 0 W/m 0,0 km/h (0 Bft)
08.06.2014 01:54 20,1 C 17,8 C 96 % 1014,6 hPa 0,0 l/m 0 min 0 min 0,0 UV-I 0 W/m 0,0 km/h (0 Bft)
08.06.2014 01:56 20,0 C 17,8 C 96 % 1014,5 hPa 0,0 l/m 0 min 0 min 0,0 UV-I 0 W/m 0,0 km/h (0 Bft)
08.06.2014 01:58 20,0 C 17,8 C 96 % 1014,5 hPa 0,0 l/m 0 min 0 min 0,0 UV-I 0 W/m 0,0 km/h (0 Bft)
08.06.2014 02:00 19,9 C 17,8 C 96 % 1014,6 hPa 0,0 l/m 0 min 0 min 0,0 UV-I 0 W/m 0,0 km/h (0 Bft)
08.06.2014 02:02 19,9 C 17,8 C 96 % 1014,7 hPa 0,0 l/m 0 min 0 min 0,0 UV-I 0 W/m 0,0 km/h (0 Bft)
08.06.2014 02:04 19,9 C 17,8 C 96 % 1014,7 hPa 0,0 l/m 0 min 0 min 0,0 UV-I 0 W/m 0,0 km/h (0 Bft)
08.06.2014 02:06 19,9 C 17,8 C 96 % 1014,6 hPa 0,0 l/m 0 min 0 min 0,0 UV-I 0 W/m 0,0 km/h (0 Bft)
08.06.2014 02:08 19,9 C 17,8 C 96 % 1014,6 hPa 0,0 l/m 0 min 0 min 0,0 UV-I 0 W/m 0,0 km/h (0 Bft)
08.06.2014 02:10 19,9 C 17,8 C 96 % 1014,7 hPa 0,0 l/m 0 min 0 min 0,0 UV-I 0 W/m 0,0 km/h (0 Bft)
08.06.2014 02:12 19,9 C 17,8 C 96 % 1014,7 hPa 0,0 l/m 0 min 0 min 0,0 UV-I 0 W/m 0,0 km/h (0 Bft)
08.06.2014 02:14 19,9 C 17,8 C 97 % 1014,6 hPa 0,0 l/m 0 min 0 min 0,0 UV-I 0 W/m 0,0 km/h (0 Bft)
08.06.2014 02:16 19,9 C 17,8 C 96 % 1014,6 hPa 0,0 l/m 0 min 0 min 0,0 UV-I 0 W/m 0,0 km/h (0 Bft)
08.06.2014 02:18 19,9 C 17,8 C 96 % 1014,6 hPa 0,0 l/m 0 min 0 min 0,0 UV-I 0 W/m 0,0 km/h (0 Bft)
08.06.2014 02:20 19,8 C 17,8 C 96 % 1014,6 hPa 0,0 l/m 0 min 0 min 0,0 UV-I 0 W/m 0,0 km/h (0 Bft)
08.06.2014 02:22 19,8 C 17,8 C 96 % 1014,6 hPa 0,0 l/m 0 min 0 min 0,0 UV-I 0 W/m 0,0 km/h (0 Bft)
08.06.2014 02:24 19,8 C 17,8 C 96 % 1014,6 hPa 0,0 l/m 0 min 0 min 0,0 UV-I 0 W/m 0,0 km/h (0 Bft)
08.06.2014 02:26 19,8 C 17,8 C 96 % 1014,6 hPa 0,0 l/m 0 min 0 min 0,0 UV-I 0 W/m 0,0 km/h (0 Bft)
08.06.2014 02:28 19,8 C 17,8 C 97 % 1014,7 hPa 0,0 l/m 0 min 0 min 0,0 UV-I 0 W/m 0,0 km/h (0 Bft)
08.06.2014 02:30 19,7 C 17,8 C 97 % 1014,7 hPa 0,0 l/m 0 min 0 min 0,0 UV-I 0 W/m 0,0 km/h (0 Bft)
08.06.2014 02:32 19,7 C 17,8 C 97 % 1014,8 hPa 0,0 l/m 0 min 0 min 0,0 UV-I 0 W/m 0,0 km/h (0 Bft)
08.06.2014 02:34 19,6 C 17,8 C 97 % 1014,8 hPa 0,0 l/m 0 min 0 min 0,0 UV-I 0 W/m 0,0 km/h (0 Bft)
08.06.2014 02:36 19,5 C 17,8 C 97 % 1014,9 hPa 0,0 l/m 0 min 0 min 0,0 UV-I 0 W/m 8,4 km/h (2 Bft)
08.06.2014 02:38 19,4 C 17,8 C 96 % 1014,9 hPa 0,0 l/m 0 min 0 min 0,0 UV-I 0 W/m 2,1 km/h (1 Bft)
08.06.2014 02:40 19,3 C 17,8 C 96 % 1014,8 hPa 0,0 l/m 0 min 0 min 0,0 UV-I 0 W/m 0,0 km/h (0 Bft)
08.06.2014 02:42 19,3 C 17,8 C 97 % 1014,8 hPa 0,0 l/m 0 min 0 min 0,0 UV-I 0 W/m 0,0 km/h (0 Bft)
08.06.2014 02:44 19,3 C 17,2 C 97 % 1014,8 hPa 0,0 l/m 0 min 0 min 0,0 UV-I 0 W/m 0,0 km/h (0 Bft)
08.06.2014 02:46 19,2 C 17,2 C 97 % 1014,9 hPa 0,0 l/m 0 min 0 min 0,0 UV-I 0 W/m 2,1 km/h (1 Bft)
08.06.2014 02:48 19,2 C 17,2 C 97 % 1014,9 hPa 0,0 l/m 0 min 0 min 0,0 UV-I 0 W/m 2,1 km/h (1 Bft)
08.06.2014 02:50 19,2 C 17,2 C 97 % 1014,9 hPa 0,0 l/m 0 min 0 min 0,0 UV-I 0 W/m 0,0 km/h (0 Bft)
08.06.2014 02:52 19,3 C 17,2 C 97 % 1014,8 hPa 0,0 l/m 0 min 0 min 0,0 UV-I 0 W/m 0,0 km/h (0 Bft)
08.06.2014 02:54 19,3 C 17,2 C 97 % 1014,8 hPa 0,0 l/m 0 min 0 min 0,0 UV-I 0 W/m 0,0 km/h (0 Bft)
08.06.2014 02:56 19,2 C 17,2 C 97 % 1014,9 hPa 0,0 l/m 0 min 0 min 0,0 UV-I 0 W/m 0,0 km/h (0 Bft)
08.06.2014 02:58 19,2 C 17,2 C 97 % 1014,9 hPa 0,0 l/m 0 min 0 min 0,0 UV-I 0 W/m 0,0 km/h (0 Bft)
08.06.2014 03:00 19,3 C 17,2 C 97 % 1014,8 hPa 0,0 l/m 0 min 0 min 0,0 UV-I 0 W/m 0,0 km/h (0 Bft)
08.06.2014 03:02 19,3 C 17,2 C 97 % 1014,8 hPa 0,0 l/m 0 min 0 min 0,0 UV-I 0 W/m 0,0 km/h (0 Bft)
08.06.2014 03:04 19,3 C 17,2 C 97 % 1014,9 hPa 0,0 l/m 0 min 0 min 0,0 UV-I 0 W/m 0,0 km/h (0 Bft)
08.06.2014 03:06 19,2 C 17,2 C 97 % 1014,9 hPa 0,0 l/m 0 min 0 min 0,0 UV-I 0 W/m 0,0 km/h (0 Bft)
08.06.2014 03:08 19,2 C 17,2 C 96 % 1014,9 hPa 0,0 l/m 0 min 0 min 0,0 UV-I 0 W/m 0,0 km/h (0 Bft)
08.06.2014 03:10 19,2 C 17,2 C 96 % 1014,8 hPa 0,0 l/m 0 min 0 min 0,0 UV-I 0 W/m 0,0 km/h (0 Bft)
08.06.2014 03:12 19,2 C 17,2 C 96 % 1014,9 hPa 0,0 l/m 0 min 0 min 0,0 UV-I 0 W/m 0,0 km/h (0 Bft)
08.06.2014 03:14 19,2 C 17,2 C 96 % 1015,0 hPa 0,0 l/m 0 min 0 min 0,0 UV-I 0 W/m 0,0 km/h (0 Bft)
08.06.2014 03:16 19,2 C 17,2 C 96 % 1015,0 hPa 0,0 l/m 0 min 0 min 0,0 UV-I 0 W/m 0,0 km/h (0 Bft)
08.06.2014 03:18 19,2 C 17,2 C 96 % 1014,9 hPa 0,0 l/m 0 min 0 min 0,0 UV-I 0 W/m 2,1 km/h (1 Bft)
08.06.2014 03:20 19,2 C 17,2 C 97 % 1015,0 hPa 0,0 l/m 0 min 0 min 0,0 UV-I 0 W/m 2,1 km/h (1 Bft)
08.06.2014 03:22 19,2 C 17,2 C 97 % 1014,9 hPa 0,0 l/m 0 min 0 min 0,0 UV-I 0 W/m 0,0 km/h (0 Bft)
08.06.2014 03:24 19,3 C 17,2 C 97 % 1014,9 hPa 0,0 l/m 0 min 0 min 0,0 UV-I 0 W/m 2,1 km/h (1 Bft)
08.06.2014 03:26 19,3 C 17,2 C 97 % 1014,9 hPa 0,0 l/m 0 min 0 min 0,0 UV-I 0 W/m 0,0 km/h (0 Bft)
08.06.2014 03:28 19,3 C 17,2 C 97 % 1014,9 hPa 0,0 l/m 0 min 0 min 0,0 UV-I 0 W/m 2,1 km/h (1 Bft)
08.06.2014 03:30 19,3 C 17,2 C 97 % 1014,9 hPa 0,0 l/m 0 min 0 min 0,0 UV-I 0 W/m 2,1 km/h (1 Bft)
08.06.2014 03:32 19,4 C 17,8 C 96 % 1014,8 hPa 0,0 l/m 0 min 0 min 0,0 UV-I 0 W/m 0,0 km/h (0 Bft)
08.06.2014 03:34 19,4 C 17,8 C 96 % 1014,8 hPa 0,0 l/m 0 min 0 min 0,0 UV-I 0 W/m 2,1 km/h (1 Bft)
08.06.2014 03:36 19,5 C 17,8 C 96 % 1014,8 hPa 0,0 l/m 0 min 0 min 0,0 UV-I 0 W/m 6,3 km/h (2 Bft)
08.06.2014 03:38 19,5 C 17,8 C 96 % 1014,8 hPa 0,0 l/m 0 min 0 min 0,0 UV-I 0 W/m 6,3 km/h (2 Bft)
08.06.2014 03:40 19,5 C 17,8 C 96 % 1014,8 hPa 0,0 l/m 0 min 0 min 0,0 UV-I 0 W/m 2,1 km/h (1 Bft)
08.06.2014 03:42 19,6 C 17,8 C 96 % 1014,8 hPa 0,0 l/m 0 min 0 min 0,0 UV-I 0 W/m 2,1 km/h (1 Bft)
08.06.2014 03:44 19,6 C 17,8 C 96 % 1014,8 hPa 0,0 l/m 0 min 0 min 0,0 UV-I 0 W/m 6,3 km/h (2 Bft)
08.06.2014 03:46 19,6 C 17,8 C 96 % 1014,8 hPa 0,0 l/m 0 min 0 min 0,0 UV-I 0 W/m 6,3 km/h (2 Bft)
08.06.2014 03:48 19,6 C 17,8 C 96 % 1014,9 hPa 0,0 l/m 0 min 0 min 0,0 UV-I 0 W/m 8,4 km/h (2 Bft)
08.06.2014 03:50 19,6 C 17,8 C 95 % 1014,9 hPa 0,0 l/m 0 min 0 min 0,0 UV-I 0 W/m 6,3 km/h (2 Bft)
08.06.2014 03:52 19,6 C 17,8 C 95 % 1014,9 hPa 0,0 l/m 0 min 0 min 0,0 UV-I 0 W/m 4,2 km/h (1 Bft)
08.06.2014 03:54 19,5 C 17,8 C 95 % 1014,9 hPa 0,0 l/m 0 min 0 min 0,0 UV-I 0 W/m 6,3 km/h (2 Bft)
08.06.2014 03:56 19,5 C 17,2 C 95 % 1014,9 hPa 0,0 l/m 0 min 0 min 0,0 UV-I 0 W/m 10,5 km/h (2 Bft)
08.06.2014 03:58 19,4 C 17,2 C 95 % 1014,9 hPa 0,0 l/m 0 min 0 min 0,0 UV-I 0 W/m 8,4 km/h (2 Bft)
08.06.2014 04:00 19,4 C 17,2 C 94 % 1015,0 hPa 0,0 l/m 0 min 0 min 0,0 UV-I 0 W/m 0,0 km/h (0 Bft)
08.06.2014 04:05 19,3 C 17,2 C 94 % 1015,0 hPa 0,0 l/m 0 min 0 min 0,0 UV-I 0 W/m 0,0 km/h (0 Bft)
08.06.2014 04:06 19,3 C 17,2 C 94 % 1015,0 hPa 0,0 l/m 0 min 0 min 0,0 UV-I 0 W/m 0,0 km/h (0 Bft)
08.06.2014 04:08 19,3 C 17,2 C 94 % 1015,1 hPa 0,0 l/m 0 min 0 min 0,0 UV-I 0 W/m 10,5 km/h (2 Bft)
08.06.2014 04:10 19,3 C 17,2 C 94 % 1015,1 hPa 0,0 l/m 0 min 0 min 0,0 UV-I 0 W/m 0,0 km/h (0 Bft)
08.06.2014 04:12 19,3 C 17,2 C 93 % 1015,1 hPa 0,0 l/m 0 min 0 min 0,0 UV-I 0 W/m 0,0 km/h (0 Bft)
08.06.2014 04:14 19,2 C 17,2 C 93 % 1015,0 hPa 0,0 l/m 0 min 0 min 0,0 UV-I 0 W/m 0,0 km/h (0 Bft)
08.06.2014 04:16 19,2 C 17,2 C 93 % 1015,2 hPa 0,0 l/m 0 min 0 min 0,0 UV-I 0 W/m 0,0 km/h (0 Bft)
08.06.2014 04:18 19,2 C 17,2 C 93 % 1015,2 hPa 0,0 l/m 0 min 0 min 0,0 UV-I 0 W/m 0,0 km/h (0 Bft)
08.06.2014 04:20 19,1 C 17,2 C 93 % 1015,2 hPa 0,0 l/m 0 min 0 min 0,0 UV-I 0 W/m 2,1 km/h (1 Bft)
08.06.2014 04:22 19,1 C 17,2 C 93 % 1015,2 hPa 0,0 l/m 0 min 0 min 0,0 UV-I 0 W/m 0,0 km/h (0 Bft)
08.06.2014 04:24 19,0 C 16,7 C 93 % 1015,2 hPa 0,0 l/m 0 min 0 min 0,0 UV-I 0 W/m 0,0 km/h (0 Bft)
08.06.2014 04:26 19,0 C 16,7 C 93 % 1015,2 hPa 0,0 l/m 0 min 0 min 0,0 UV-I 0 W/m 0,0 km/h (0 Bft)
08.06.2014 04:28 18,9 C 16,7 C 93 % 1015,2 hPa 0,0 l/m 0 min 0 min 0,0 UV-I 0 W/m 0,0 km/h (0 Bft)
08.06.2014 04:30 18,9 C 16,7 C 93 % 1015,2 hPa 0,0 l/m 0 min 0 min 0,0 UV-I 0 W/m 0,0 km/h (0 Bft)
08.06.2014 04:32 18,9 C 16,7 C 93 % 1015,2 hPa 0,0 l/m 0 min 0 min 0,0 UV-I 0 W/m 0,0 km/h (0 Bft)
08.06.2014 04:34 18,9 C 16,7 C 93 % 1015,2 hPa 0,0 l/m 0 min 0 min 0,0 UV-I 0 W/m 0,0 km/h (0 Bft)
08.06.2014 04:36 18,9 C 16,7 C 93 % 1015,3 hPa 0,0 l/m 0 min 0 min 0,0 UV-I 0 W/m 0,0 km/h (0 Bft)
08.06.2014 04:38 18,9 C 16,7 C 93 % 1015,3 hPa 0,0 l/m 0 min 0 min 0,0 UV-I 0 W/m 0,0 km/h (0 Bft)
08.06.2014 04:40 18,9 C 16,7 C 93 % 1015,3 hPa 0,0 l/m 0 min 0 min 0,0 UV-I 0 W/m 0,0 km/h (0 Bft)
08.06.2014 04:42 18,9 C 16,7 C 93 % 1015,4 hPa 0,0 l/m 0 min 0 min 0,0 UV-I 0 W/m 0,0 km/h (0 Bft)
08.06.2014 04:44 18,8 C 16,7 C 93 % 1015,3 hPa 0,0 l/m 0 min 0 min 0,0 UV-I 0 W/m 0,0 km/h (0 Bft)
08.06.2014 04:46 18,8 C 16,7 C 93 % 1015,4 hPa 0,0 l/m 0 min 0 min 0,0 UV-I 0 W/m 0,0 km/h (0 Bft)
08.06.2014 04:48 18,8 C 16,7 C 93 % 1015,5 hPa 0,0 l/m 0 min 0 min 0,0 UV-I 0 W/m 0,0 km/h (0 Bft)
08.06.2014 04:50 18,8 C 16,7 C 93 % 1015,6 hPa 0,0 l/m 0 min 0 min 0,0 UV-I 0 W/m 0,0 km/h (0 Bft)
08.06.2014 04:52 18,7 C 16,7 C 93 % 1015,6 hPa 0,0 l/m 0 min 0 min 0,0 UV-I 0 W/m 0,0 km/h (0 Bft)
08.06.2014 04:54 18,7 C 16,7 C 93 % 1015,6 hPa 0,0 l/m 0 min 0 min 0,0 UV-I 0 W/m 0,0 km/h (0 Bft)
08.06.2014 04:56 18,7 C 16,7 C 94 % 1015,6 hPa 0,0 l/m 0 min 0 min 0,0 UV-I 0 W/m 0,0 km/h (0 Bft)
08.06.2014 04:58 18,7 C 16,7 C 94 % 1015,6 hPa 0,0 l/m 0 min 0 min 0,0 UV-I 0 W/m 0,0 km/h (0 Bft)
08.06.2014 05:00 18,7 C 16,7 C 94 % 1015,6 hPa 0,0 l/m 0 min 0 min 0,0 UV-I 0 W/m 0,0 km/h (0 Bft)
08.06.2014 05:02 18,7 C 16,7 C 94 % 1015,7 hPa 0,0 l/m 0 min 0 min 0,0 UV-I 0 W/m 0,0 km/h (0 Bft)
08.06.2014 05:04 18,6 C 16,7 C 94 % 1015,6 hPa 0,0 l/m 0 min 0 min 0,0 UV-I 0 W/m 0,0 km/h (0 Bft)
08.06.2014 05:06 18,6 C 16,7 C 94 % 1015,6 hPa 0,0 l/m 0 min 0 min 0,0 UV-I 0 W/m 0,0 km/h (0 Bft)
08.06.2014 05:08 18,6 C 16,7 C 94 % 1015,6 hPa 0,0 l/m 0 min 0 min 0,0 UV-I 0 W/m 0,0 km/h (0 Bft)
08.06.2014 05:10 18,6 C 16,7 C 94 % 1015,6 hPa 0,0 l/m 0 min 0 min 0,0 UV-I 0 W/m 0,0 km/h (0 Bft)
08.06.2014 05:12 18,6 C 16,7 C 94 % 1015,7 hPa 0,0 l/m 0 min 0 min 0,0 UV-I 0 W/m 0,0 km/h (0 Bft)
08.06.2014 05:14 18,5 C 16,7 C 93 % 1015,7 hPa 0,0 l/m 0 min 0 min 0,0 UV-I 0 W/m 0,0 km/h (0 Bft)
08.06.2014 05:16 18,5 C 16,7 C 93 % 1015,7 hPa 0,0 l/m 0 min 0 min 0,0 UV-I 0 W/m 0,0 km/h (0 Bft)
08.06.2014 05:18 18,5 C 16,7 C 93 % 1015,8 hPa 0,0 l/m 0 min 0 min 0,0 UV-I 0 W/m 0,0 km/h (0 Bft)
08.06.2014 05:20 18,5 C 16,7 C 93 % 1015,6 hPa 0,0 l/m 0 min 0 min 0,0 UV-I 0 W/m 0,0 km/h (0 Bft)
08.06.2014 05:22 18,5 C 16,7 C 93 % 1015,6 hPa 0,0 l/m 0 min 0 min 0,0 UV-I 5 W/m 0,0 km/h (0 Bft)
08.06.2014 05:24 18,5 C 16,7 C 93 % 1015,6 hPa 0,0 l/m 0 min 0 min 0,0 UV-I 5 W/m 6,3 km/h (2 Bft)
08.06.2014 05:26 18,5 C 16,7 C 93 % 1015,6 hPa 0,0 l/m 0 min 0 min 0,0 UV-I 5 W/m 8,4 km/h (2 Bft)
08.06.2014 05:28 18,6 C 16,7 C 93 % 1015,6 hPa 0,0 l/m 0 min 0 min 0,0 UV-I 5 W/m 0,0 km/h (0 Bft)
08.06.2014 05:30 18,5 C 16,7 C 93 % 1015,6 hPa 0,0 l/m 0 min 0 min 0,0 UV-I 7 W/m 0,0 km/h (0 Bft)
08.06.2014 05:32 18,5 C 16,7 C 93 % 1015,6 hPa 0,0 l/m 0 min 0 min 0,0 UV-I 7 W/m 6,3 km/h (2 Bft)
08.06.2014 05:34 18,5 C 16,7 C 93 % 1015,5 hPa 0,0 l/m 0 min 0 min 0,0 UV-I 7 W/m 0,0 km/h (0 Bft)
08.06.2014 05:36 18,5 C 16,7 C 93 % 1015,5 hPa 0,0 l/m 0 min 0 min 0,0 UV-I 9 W/m 0,0 km/h (0 Bft)
08.06.2014 05:38 18,4 C 16,7 C 93 % 1015,5 hPa 0,0 l/m 0 min 0 min 0,0 UV-I 9 W/m 0,0 km/h (0 Bft)
08.06.2014 05:40 18,5 C 16,7 C 93 % 1015,5 hPa 0,0 l/m 0 min 0 min 0,0 UV-I 11 W/m 2,1 km/h (1 Bft)
08.06.2014 05:42 18,4 C 16,7 C 93 % 1015,6 hPa 0,0 l/m 0 min 0 min 0,0 UV-I 11 W/m 0,0 km/h (0 Bft)
08.06.2014 05:44 18,4 C 16,7 C 92 % 1015,6 hPa 0,0 l/m 0 min 0 min 0,0 UV-I 11 W/m 0,0 km/h (0 Bft)
08.06.2014 05:46 18,3 C 16,7 C 92 % 1015,5 hPa 0,0 l/m 0 min 0 min 0,0 UV-I 12 W/m 0,0 km/h (0 Bft)
08.06.2014 05:48 18,3 C 16,7 C 92 % 1015,6 hPa 0,0 l/m 0 min 0 min 0,0 UV-I 12 W/m 0,0 km/h (0 Bft)
08.06.2014 05:50 18,2 C 16,7 C 93 % 1015,6 hPa 0,0 l/m 0 min 0 min 0,0 UV-I 12 W/m 0,0 km/h (0 Bft)
08.06.2014 05:52 18,2 C 16,1 C 93 % 1015,7 hPa 0,0 l/m 0 min 0 min 0,0 UV-I 14 W/m 0,0 km/h (0 Bft)
08.06.2014 05:54 18,2 C 16,1 C 93 % 1015,7 hPa 0,0 l/m 0 min 0 min 0,0 UV-I 16 W/m 0,0 km/h (0 Bft)
08.06.2014 05:56 18,1 C 16,1 C 93 % 1015,7 hPa 0,0 l/m 0 min 0 min 0,0 UV-I 19 W/m 0,0 km/h (0 Bft)
08.06.2014 05:58 18,1 C 16,1 C 93 % 1015,7 hPa 0,0 l/m 0 min 0 min 0,0 UV-I 21 W/m 0,0 km/h (0 Bft)
08.06.2014 06:00 18,1 C 16,1 C 93 % 1015,6 hPa 0,0 l/m 0 min 0 min 0,0 UV-I 30 W/m 0,0 km/h (0 Bft)
08.06.2014 06:02 18,2 C 16,1 C 93 % 1015,6 hPa 0,0 l/m 0 min 0 min 0,0 UV-I 35 W/m 0,0 km/h (0 Bft)
08.06.2014 06:06 18,2 C 16,7 C 93 % 1015,8 hPa 0,0 l/m 0 min 0 min 0,0 UV-I 39 W/m 0,0 km/h (0 Bft)
08.06.2014 06:08 18,2 C 16,7 C 93 % 1015,8 hPa 0,0 l/m 0 min 0 min 0,0 UV-I 39 W/m 0,0 km/h (0 Bft)
08.06.2014 06:10 18,2 C 16,7 C 93 % 1015,8 hPa 0,0 l/m 0 min 0 min 0,0 UV-I 37 W/m 0,0 km/h (0 Bft)
08.06.2014 06:12 18,3 C 16,7 C 94 % 1015,9 hPa 0,0 l/m 0 min 0 min 0,0 UV-I 35 W/m 0,0 km/h (0 Bft)
08.06.2014 06:14 18,3 C 16,7 C 94 % 1015,9 hPa 0,0 l/m 0 min 0 min 0,0 UV-I 33 W/m 0,0 km/h (0 Bft)
08.06.2014 06:16 18,3 C 16,7 C 94 % 1015,9 hPa 0,0 l/m 0 min 0 min 0,0 UV-I 35 W/m 0,0 km/h (0 Bft)
08.06.2014 06:18 18,3 C 16,7 C 94 % 1015,9 hPa 0,0 l/m 0 min 0 min 0,0 UV-I 40 W/m 0,0 km/h (0 Bft)
08.06.2014 06:20 18,3 C 16,7 C 94 % 1015,9 hPa 0,0 l/m 0 min 0 min 0,0 UV-I 40 W/m 0,0 km/h (0 Bft)
08.06.2014 06:22 18,3 C 16,7 C 94 % 1015,9 hPa 0,0 l/m 0 min 0 min 0,0 UV-I 46 W/m 0,0 km/h (0 Bft)
08.06.2014 06:24 18,3 C 16,7 C 94 % 1016,0 hPa 0,0 l/m 0 min 0 min 0,0 UV-I 49 W/m 0,0 km/h (0 Bft)
08.06.2014 06:26 18,3 C 16,7 C 94 % 1016,0 hPa 0,0 l/m 0 min 0 min 0,0 UV-I 60 W/m 0,0 km/h (0 Bft)
08.06.2014 06:28 18,3 C 16,7 C 94 % 1016,1 hPa 0,0 l/m 0 min 0 min 0,0 UV-I 63 W/m 0,0 km/h (0 Bft)
08.06.2014 06:30 18,3 C 16,7 C 94 % 1016,1 hPa 0,0 l/m 0 min 0 min 0,0 UV-I 62 W/m 0,0 km/h (0 Bft)
08.06.2014 06:32 18,3 C 16,7 C 94 % 1016,1 hPa 0,0 l/m 0 min 0 min 0,0 UV-I 62 W/m 0,0 km/h (0 Bft)
08.06.2014 06:34 18,3 C 16,7 C 94 % 1016,1 hPa 0,0 l/m 0 min 0 min 0,0 UV-I 63 W/m 0,0 km/h (0 Bft)
08.06.2014 06:36 18,4 C 16,7 C 94 % 1016,1 hPa 0,0 l/m 0 min 0 min 0,0 UV-I 56 W/m 0,0 km/h (0 Bft)
08.06.2014 06:38 18,4 C 16,7 C 94 % 1016,1 hPa 0,0 l/m 0 min 0 min 0,0 UV-I 67 W/m 0,0 km/h (0 Bft)
08.06.2014 06:40 18,4 C 16,7 C 94 % 1016,1 hPa 0,0 l/m 0 min 0 min 0,0 UV-I 70 W/m 0,0 km/h (0 Bft)
08.06.2014 06:42 18,4 C 16,7 C 94 % 1016,1 hPa 0,0 l/m 0 min 0 min 0,0 UV-I 70 W/m 0,0 km/h (0 Bft)
08.06.2014 06:44 18,3 C 16,7 C 94 % 1016,1 hPa 0,0 l/m 0 min 0 min 0,0 UV-I 79 W/m 0,0 km/h (0 Bft)
08.06.2014 06:46 18,3 C 16,7 C 94 % 1016,0 hPa 0,0 l/m 0 min 0 min 0,0 UV-I 83 W/m 0,0 km/h (0 Bft)
08.06.2014 06:48 18,3 C 16,7 C 94 % 1015,9 hPa 0,0 l/m 0 min 0 min 0,0 UV-I 86 W/m 0,0 km/h (0 Bft)
08.06.2014 06:50 18,3 C 16,7 C 94 % 1016,0 hPa 0,0 l/m 0 min 0 min 0,0 UV-I 90 W/m 0,0 km/h (0 Bft)
08.06.2014 06:52 18,3 C 16,7 C 94 % 1015,9 hPa 0,0 l/m 0 min 0 min 0,0 UV-I 95 W/m 0,0 km/h (0 Bft)
08.06.2014 06:54 18,4 C 16,7 C 94 % 1015,9 hPa 0,0 l/m 0 min 0 min 0,0 UV-I 98 W/m 0,0 km/h (0 Bft)
08.06.2014 06:56 18,4 C 16,7 C 94 % 1015,9 hPa 0,0 l/m 0 min 0 min 0,0 UV-I 100 W/m 0,0 km/h (0 Bft)
08.06.2014 06:58 18,5 C 17,2 C 94 % 1015,9 hPa 0,0 l/m 2 min 0 min 0,0 UV-I 105 W/m 0,0 km/h (0 Bft)
08.06.2014 07:00 18,6 C 17,2 C 94 % 1015,9 hPa 0,0 l/m 0 min 0 min 0,0 UV-I 95 W/m 0,0 km/h (0 Bft)
08.06.2014 07:02 18,6 C 17,2 C 94 % 1016,1 hPa 0,0 l/m 2 min 0 min 0,0 UV-I 111 W/m 0,0 km/h (0 Bft)
08.06.2014 07:04 18,6 C 17,2 C 94 % 1016,1 hPa 0,0 l/m 2 min 0 min 0,0 UV-I 125 W/m 0,0 km/h (0 Bft)
08.06.2014 07:06 18,7 C 17,2 C 94 % 1016,0 hPa 0,0 l/m 2 min 0 min 0,0 UV-I 127 W/m 0,0 km/h (0 Bft)
08.06.2014 07:08 18,7 C 17,2 C 94 % 1016,0 hPa 0,0 l/m 2 min 0 min 0,0 UV-I 130 W/m 0,0 km/h (0 Bft)
08.06.2014 07:10 18,8 C 17,2 C 93 % 1016,1 hPa 0,0 l/m 2 min 0 min 0,0 UV-I 141 W/m 0,0 km/h (0 Bft)
08.06.2014 07:12 18,8 C 17,2 C 93 % 1016,0 hPa 0,0 l/m 2 min 0 min 0,0 UV-I 148 W/m 0,0 km/h (0 Bft)
08.06.2014 07:14 18,9 C 17,2 C 93 % 1016,0 hPa 0,0 l/m 2 min 0 min 0,0 UV-I 148 W/m 0,0 km/h (0 Bft)
08.06.2014 07:16 18,9 C 17,2 C 93 % 1016,0 hPa 0,0 l/m 2 min 0 min 0,0 UV-I 144 W/m 2,1 km/h (1 Bft)
08.06.2014 07:18 19,1 C 17,8 C 92 % 1016,0 hPa 0,0 l/m 2 min 0 min 0,0 UV-I 148 W/m 0,0 km/h (0 Bft)
08.06.2014 07:20 19,2 C 17,8 C 92 % 1016,2 hPa 0,0 l/m 2 min 0 min 0,0 UV-I 156 W/m 8,4 km/h (2 Bft)
08.06.2014 07:22 19,2 C 17,8 C 91 % 1016,5 hPa 0,0 l/m 2 min 0 min 0,0 UV-I 171 W/m 12,6 km/h (3 Bft)
08.06.2014 07:24 19,3 C 17,8 C 92 % 1016,5 hPa 0,0 l/m 2 min 0 min 0,0 UV-I 169 W/m 14,6 km/h (3 Bft)
08.06.2014 07:26 19,3 C 17,8 C 91 % 1016,4 hPa 0,0 l/m 2 min 0 min 0,0 UV-I 165 W/m 6,3 km/h (2 Bft)
08.06.2014 07:28 19,3 C 17,8 C 91 % 1016,4 hPa 0,0 l/m 2 min 0 min 0,0 UV-I 176 W/m 8,4 km/h (2 Bft)
08.06.2014 07:30 19,4 C 17,8 C 91 % 1016,6 hPa 0,0 l/m 2 min 0 min 0,0 UV-I 181 W/m 16,7 km/h (3 Bft)
08.06.2014 07:32 19,4 C 17,8 C 90 % 1016,6 hPa 0,0 l/m 2 min 0 min 0,0 UV-I 190 W/m 14,6 km/h (3 Bft)
08.06.2014 07:34 19,4 C 18,3 C 90 % 1016,4 hPa 0,0 l/m 2 min 0 min 0,0 UV-I 192 W/m 6,3 km/h (2 Bft)
08.06.2014 07:36 19,4 C 18,3 C 90 % 1016,5 hPa 0,0 l/m 2 min 0 min 0,0 UV-I 218 W/m 12,6 km/h (3 Bft)
08.06.2014 07:38 19,5 C 18,3 C 90 % 1016,6 hPa 0,0 l/m 2 min 0 min 0,0 UV-I 229 W/m 16,7 km/h (3 Bft)
08.06.2014 07:40 19,6 C 18,3 C 90 % 1016,6 hPa 0,0 l/m 2 min 0 min 0,0 UV-I 221 W/m 8,4 km/h (2 Bft)
08.06.2014 07:42 19,6 C 18,3 C 89 % 1016,6 hPa 0,0 l/m 2 min 0 min 0,0 UV-I 218 W/m 10,5 km/h (2 Bft)
08.06.2014 07:44 19,7 C 18,3 C 89 % 1016,6 hPa 0,0 l/m 2 min 0 min 0,0 UV-I 211 W/m 12,6 km/h (3 Bft)
08.06.2014 07:46 19,7 C 18,3 C 89 % 1016,7 hPa 0,0 l/m 0 min 0 min 0,0 UV-I 151 W/m 12,6 km/h (3 Bft)
08.06.2014 07:48 19,7 C 18,3 C 88 % 1016,6 hPa 0,0 l/m 0 min 0 min 0,0 UV-I 160 W/m 14,6 km/h (3 Bft)
08.06.2014 07:50 19,7 C 18,3 C 88 % 1016,7 hPa 0,0 l/m 2 min 0 min 0,0 UV-I 172 W/m 12,6 km/h (3 Bft)
08.06.2014 07:52 19,7 C 18,3 C 88 % 1016,7 hPa 0,0 l/m 2 min 0 min 0,0 UV-I 230 W/m 10,5 km/h (2 Bft)
08.06.2014 07:54 19,7 C 18,3 C 88 % 1016,8 hPa 0,0 l/m 2 min 0 min 0,0 UV-I 213 W/m 14,6 km/h (3 Bft)
08.06.2014 07:56 19,8 C 18,3 C 88 % 1016,8 hPa 0,0 l/m 2 min 0 min 0,0 UV-I 272 W/m 6,3 km/h (2 Bft)
08.06.2014 07:58 19,9 C 18,3 C 88 % 1016,8 hPa 0,0 l/m 2 min 0 min 0,0 UV-I 272 W/m 14,6 km/h (3 Bft)
08.06.2014 08:00 19,9 C 18,9 C 88 % 1016,8 hPa 0,0 l/m 2 min 0 min 0,0 UV-I 229 W/m 16,7 km/h (3 Bft)
08.06.2014 08:02 20,0 C 18,9 C 88 % 1016,7 hPa 0,0 l/m 2 min 0 min 0,0 UV-I 290 W/m 12,6 km/h (3 Bft)
08.06.2014 08:04 20,1 C 18,9 C 88 % 1016,8 hPa 0,0 l/m 2 min 0 min 0,0 UV-I 304 W/m 8,4 km/h (2 Bft)
08.06.2014 08:06 20,2 C 18,9 C 87 % 1016,8 hPa 0,0 l/m 2 min 0 min 0,0 UV-I 278 W/m 14,6 km/h (3 Bft)
08.06.2014 08:08 20,2 C 18,9 C 87 % 1016,8 hPa 0,0 l/m 2 min 0 min 0,0 UV-I 188 W/m 14,6 km/h (3 Bft)
08.06.2014 08:10 20,3 C 18,9 C 87 % 1016,9 hPa 0,0 l/m 2 min 0 min 0,0 UV-I 313 W/m 12,6 km/h (3 Bft)
08.06.2014 08:12 20,3 C 18,9 C 87 % 1016,9 hPa 0,0 l/m 2 min 0 min 0,0 UV-I 313 W/m 16,7 km/h (3 Bft)
08.06.2014 08:14 20,3 C 18,9 C 87 % 1016,8 hPa 0,0 l/m 2 min 0 min 0,0 UV-I 302 W/m 12,6 km/h (3 Bft)
08.06.2014 08:16 20,4 C 18,9 C 87 % 1016,8 hPa 0,0 l/m 2 min 0 min 0,0 UV-I 288 W/m 12,6 km/h (3 Bft)
08.06.2014 08:18 20,4 C 18,9 C 87 % 1016,8 hPa 0,0 l/m 2 min 0 min 0,0 UV-I 285 W/m 16,7 km/h (3 Bft)
08.06.2014 08:20 20,3 C 18,9 C 86 % 1016,8 hPa 0,0 l/m 2 min 0 min 0,0 UV-I 287 W/m 12,6 km/h (3 Bft)
08.06.2014 08:22 20,3 C 18,9 C 86 % 1016,9 hPa 0,0 l/m 2 min 0 min 0,0 UV-I 295 W/m 16,7 km/h (3 Bft)
08.06.2014 08:24 20,3 C 18,9 C 86 % 1016,9 hPa 0,0 l/m 2 min 0 min 0,0 UV-I 299 W/m 18,8 km/h (3 Bft)
08.06.2014 08:26 20,3 C 18,9 C 86 % 1016,9 hPa 0,0 l/m 2 min 0 min 0,0 UV-I 306 W/m 18,8 km/h (3 Bft)
08.06.2014 08:28 20,2 C 18,9 C 86 % 1017,0 hPa 0,0 l/m 2 min 0 min 0,0 UV-I 313 W/m 14,6 km/h (3 Bft)
08.06.2014 08:30 20,2 C 18,9 C 86 % 1017,0 hPa 0,0 l/m 2 min 0 min 0,0 UV-I 318 W/m 10,5 km/h (2 Bft)
08.06.2014 08:32 20,3 C 18,9 C 86 % 1017,1 hPa 0,0 l/m 2 min 0 min 0,0 UV-I 327 W/m 10,5 km/h (2 Bft)
08.06.2014 08:34 20,4 C 18,9 C 86 % 1017,1 hPa 0,0 l/m 2 min 0 min 0,0 UV-I 341 W/m 8,4 km/h (2 Bft)
08.06.2014 08:36 20,7 C 19,4 C 86 % 1017,2 hPa 0,0 l/m 2 min 0 min 0,0 UV-I 339 W/m 18,8 km/h (3 Bft)
08.06.2014 08:38 20,7 C 19,4 C 85 % 1017,2 hPa 0,0 l/m 0 min 0 min 0,0 UV-I 156 W/m 18,8 km/h (3 Bft)
08.06.2014 08:40 20,7 C 19,4 C 84 % 1017,2 hPa 0,0 l/m 0 min 0 min 0,0 UV-I 148 W/m 18,8 km/h (3 Bft)
08.06.2014 08:42 20,6 C 18,9 C 84 % 1017,2 hPa 0,0 l/m 0 min 0 min 0,0 UV-I 135 W/m 12,6 km/h (3 Bft)
08.06.2014 08:44 20,4 C 18,9 C 84 % 1017,1 hPa 0,0 l/m 0 min 0 min 0,0 UV-I 139 W/m 10,5 km/h (2 Bft)
08.06.2014 08:46 20,4 C 18,9 C 84 % 1017,1 hPa 0,0 l/m 0 min 0 min 0,0 UV-I 225 W/m 20,9 km/h (4 Bft)
08.06.2014 08:48 20,3 C 18,9 C 84 % 1017,1 hPa 0,0 l/m 2 min 0 min 0,0 UV-I 374 W/m 16,7 km/h (3 Bft)
08.06.2014 08:50 20,4 C 18,9 C 84 % 1017,0 hPa 0,0 l/m 2 min 0 min 0,0 UV-I 369 W/m 12,6 km/h (3 Bft)
08.06.2014 08:52 20,5 C 19,4 C 85 % 1017,0 hPa 0,0 l/m 2 min 0 min 0,0 UV-I 367 W/m 14,6 km/h (3 Bft)
08.06.2014 08:54 20,6 C 19,4 C 84 % 1017,0 hPa 0,0 l/m 2 min 0 min 0,0 UV-I 373 W/m 18,8 km/h (3 Bft)
08.06.2014 08:56 20,7 C 19,4 C 84 % 1017,0 hPa 0,0 l/m 2 min 0 min 0,0 UV-I 357 W/m 14,6 km/h (3 Bft)
08.06.2014 08:58 20,8 C 19,4 C 83 % 1017,0 hPa 0,0 l/m 2 min 0 min 0,0 UV-I 336 W/m 23,0 km/h (4 Bft)
08.06.2014 09:00 20,9 C 19,4 C 83 % 1017,1 hPa 0,0 l/m 2 min 0 min 0,0 UV-I 378 W/m 16,7 km/h (3 Bft)
08.06.2014 09:02 20,9 C 19,4 C 83 % 1017,1 hPa 0,0 l/m 2 min 0 min 0,0 UV-I 396 W/m 12,6 km/h (3 Bft)
08.06.2014 09:04 20,9 C 20,0 C 83 % 1017,2 hPa 0,0 l/m 2 min 0 min 0,5 UV-I 401 W/m 12,6 km/h (3 Bft)
08.06.2014 09:06 21,1 C 20,0 C 83 % 1017,2 hPa 0,0 l/m 2 min 0 min 0,5 UV-I 404 W/m 18,8 km/h (3 Bft)
08.06.2014 09:08 21,1 C 20,0 C 82 % 1017,2 hPa 0,0 l/m 2 min 0 min 0,5 UV-I 408 W/m 14,6 km/h (3 Bft)
08.06.2014 09:10 21,2 C 20,0 C 81 % 1017,3 hPa 0,0 l/m 2 min 0 min 0,5 UV-I 411 W/m 20,9 km/h (4 Bft)
08.06.2014 09:12 21,3 C 20,0 C 81 % 1017,2 hPa 0,0 l/m 2 min 0 min 0,6 UV-I 411 W/m 16,7 km/h (3 Bft)
08.06.2014 09:14 21,4 C 20,0 C 82 % 1017,2 hPa 0,0 l/m 2 min 0 min 0,6 UV-I 415 W/m 14,6 km/h (3 Bft)
08.06.2014 09:16 21,5 C 20,0 C 81 % 1017,2 hPa 0,0 l/m 2 min 0 min 0,6 UV-I 418 W/m 8,4 km/h (2 Bft)
08.06.2014 09:18 21,7 C 20,6 C 82 % 1017,3 hPa 0,0 l/m 2 min 0 min 0,6 UV-I 429 W/m 14,6 km/h (3 Bft)
08.06.2014 09:20 21,8 C 20,6 C 81 % 1017,3 hPa 0,0 l/m 2 min 0 min 0,7 UV-I 438 W/m 18,8 km/h (3 Bft)
08.06.2014 09:22 21,7 C 20,6 C 80 % 1017,3 hPa 0,0 l/m 2 min 0 min 0,7 UV-I 446 W/m 20,9 km/h (4 Bft)
08.06.2014 09:24 21,7 C 20,6 C 80 % 1017,3 hPa 0,0 l/m 2 min 0 min 0,7 UV-I 471 W/m 16,7 km/h (3 Bft)
08.06.2014 09:26 21,7 C 20,6 C 79 % 1017,3 hPa 0,0 l/m 2 min 0 min 0,8 UV-I 432 W/m 18,8 km/h (3 Bft)
08.06.2014 09:28 21,7 C 20,6 C 79 % 1017,3 hPa 0,0 l/m 2 min 0 min 0,8 UV-I 422 W/m 14,6 km/h (3 Bft)
08.06.2014 09:30 21,8 C 20,6 C 80 % 1017,4 hPa 0,0 l/m 2 min 0 min 0,8 UV-I 490 W/m 18,8 km/h (3 Bft)
08.06.2014 09:32 21,9 C 20,6 C 79 % 1017,4 hPa 0,0 l/m 2 min 0 min 0,9 UV-I 499 W/m 18,8 km/h (3 Bft)
08.06.2014 09:34 22,0 C 21,1 C 78 % 1017,3 hPa 0,0 l/m 2 min 0 min 1,0 UV-I 527 W/m 16,7 km/h (3 Bft)
08.06.2014 09:36 22,1 C 21,1 C 78 % 1017,3 hPa 0,0 l/m 2 min 0 min 1,1 UV-I 552 W/m 16,7 km/h (3 Bft)
08.06.2014 09:38 22,2 C 21,1 C 79 % 1017,4 hPa 0,0 l/m 2 min 0 min 1,1 UV-I 547 W/m 18,8 km/h (3 Bft)
08.06.2014 09:40 22,2 C 21,1 C 78 % 1017,3 hPa 0,0 l/m 2 min 0 min 1,0 UV-I 410 W/m 23,0 km/h (4 Bft)
08.06.2014 09:42 22,1 C 21,1 C 78 % 1017,4 hPa 0,0 l/m 2 min 0 min 0,9 UV-I 332 W/m 16,7 km/h (3 Bft)
08.06.2014 09:44 22,1 C 21,1 C 78 % 1017,4 hPa 0,0 l/m 2 min 0 min 1,0 UV-I 339 W/m 16,7 km/h (3 Bft)
08.06.2014 09:46 22,0 C 21,1 C 79 % 1017,3 hPa 0,0 l/m 2 min 0 min 1,0 UV-I 334 W/m 12,6 km/h (3 Bft)
08.06.2014 09:48 22,0 C 21,1 C 79 % 1017,4 hPa 0,0 l/m 2 min 0 min 1,1 UV-I 350 W/m 20,9 km/h (4 Bft)
08.06.2014 09:50 22,0 C 21,7 C 79 % 1017,3 hPa 0,0 l/m 2 min 0 min 1,1 UV-I 367 W/m 18,8 km/h (3 Bft)
08.06.2014 09:52 22,0 C 21,7 C 79 % 1017,4 hPa 0,0 l/m 2 min 0 min 1,1 UV-I 336 W/m 16,7 km/h (3 Bft)
08.06.2014 09:54 22,1 C 21,7 C 80 % 1017,4 hPa 0,0 l/m 2 min 0 min 1,1 UV-I 322 W/m 12,6 km/h (3 Bft)
08.06.2014 09:56 22,1 C 21,7 C 79 % 1017,5 hPa 0,0 l/m 2 min 0 min 1,0 UV-I 341 W/m 10,5 km/h (2 Bft)
08.06.2014 09:58 22,2 C 22,2 C 80 % 1017,4 hPa 0,0 l/m 0 min 0 min 1,0 UV-I 288 W/m 12,6 km/h (3 Bft)
08.06.2014 10:00 22,3 C 21,7 C 79 % 1017,5 hPa 0,0 l/m 0 min 0 min 0,9 UV-I 250 W/m 12,6 km/h (3 Bft)
08.06.2014 10:02 22,3 C 21,7 C 79 % 1017,4 hPa 0,0 l/m 0 min 0 min 0,9 UV-I 229 W/m 16,7 km/h (3 Bft)
08.06.2014 10:04 22,2 C 21,7 C 79 % 1017,3 hPa 0,0 l/m 0 min 0 min 1,0 UV-I 253 W/m 16,7 km/h (3 Bft)
08.06.2014 10:06 22,1 C 21,7 C 79 % 1017,2 hPa 0,0 l/m 0 min 0 min 1,1 UV-I 285 W/m 14,6 km/h (3 Bft)
08.06.2014 10:08 22,0 C 21,7 C 80 % 1017,3 hPa 0,0 l/m 0 min 0 min 1,0 UV-I 255 W/m 16,7 km/h (3 Bft)
08.06.2014 10:10 22,0 C 21,7 C 80 % 1017,3 hPa 0,0 l/m 2 min 0 min 1,2 UV-I 336 W/m 12,6 km/h (3 Bft)
08.06.2014 10:12 22,0 C 21,7 C 79 % 1017,4 hPa 0,0 l/m 0 min 0 min 1,2 UV-I 306 W/m 20,9 km/h (4 Bft)
08.06.2014 10:14 22,0 C 21,7 C 79 % 1017,3 hPa 0,0 l/m 0 min 0 min 1,3 UV-I 316 W/m 16,7 km/h (3 Bft)
08.06.2014 10:16 22,0 C 21,7 C 78 % 1017,4 hPa 0,0 l/m 0 min 0 min 1,3 UV-I 306 W/m 16,7 km/h (3 Bft)
08.06.2014 10:18 22,0 C 21,7 C 79 % 1017,5 hPa 0,0 l/m 0 min 0 min 1,2 UV-I 301 W/m 12,6 km/h (3 Bft)
08.06.2014 10:20 22,0 C 21,7 C 79 % 1017,6 hPa 0,0 l/m 0 min 0 min 1,1 UV-I 316 W/m 14,6 km/h (3 Bft)
08.06.2014 10:22 22,0 C 21,7 C 79 % 1017,6 hPa 0,0 l/m 0 min 0 min 1,1 UV-I 272 W/m 16,7 km/h (3 Bft)
08.06.2014 10:24 22,1 C 21,7 C 80 % 1017,6 hPa 0,0 l/m 0 min 0 min 0,9 UV-I 251 W/m 14,6 km/h (3 Bft)
08.06.2014 10:26 22,1 C 21,7 C 79 % 1017,6 hPa 0,0 l/m 0 min 0 min 0,7 UV-I 216 W/m 10,5 km/h (2 Bft)
08.06.2014 10:28 22,1 C 21,7 C 79 % 1017,8 hPa 0,0 l/m 0 min 0 min 0,5 UV-I 167 W/m 12,6 km/h (3 Bft)
08.06.2014 10:30 22,1 C 21,7 C 80 % 1017,9 hPa 0,0 l/m 0 min 0 min 0,5 UV-I 155 W/m 0,0 km/h (0 Bft)
08.06.2014 10:32 22,1 C 21,1 C 79 % 1017,9 hPa 0,0 l/m 0 min 0 min 0,5 UV-I 153 W/m 14,6 km/h (3 Bft)
08.06.2014 10:34 22,1 C 21,1 C 80 % 1017,9 hPa 0,0 l/m 0 min 0 min 0,7 UV-I 165 W/m 14,6 km/h (3 Bft)
08.06.2014 10:36 22,1 C 21,1 C 79 % 1017,8 hPa 0,0 l/m 0 min 0 min 0,9 UV-I 199 W/m 12,6 km/h (3 Bft)
08.06.2014 10:38 22,1 C 21,7 C 79 % 1017,8 hPa 0,0 l/m 0 min 0 min 1,1 UV-I 223 W/m 12,6 km/h (3 Bft)
08.06.2014 10:40 22,1 C 21,7 C 79 % 1017,8 hPa 0,0 l/m 0 min 0 min 1,1 UV-I 243 W/m 10,5 km/h (2 Bft)
08.06.2014 10:42 22,1 C 21,7 C 79 % 1017,9 hPa 0,0 l/m 0 min 0 min 1,1 UV-I 241 W/m 10,5 km/h (2 Bft)
08.06.2014 10:44 22,2 C 21,7 C 79 % 1017,9 hPa 0,0 l/m 0 min 0 min 0,9 UV-I 229 W/m 12,6 km/h (3 Bft)
08.06.2014 10:46 22,3 C 21,7 C 80 % 1017,9 hPa 0,0 l/m 0 min 0 min 0,8 UV-I 200 W/m 10,5 km/h (2 Bft)
08.06.2014 10:48 22,3 C 21,7 C 79 % 1017,9 hPa 0,0 l/m 0 min 0 min 0,6 UV-I 192 W/m 10,5 km/h (2 Bft)
08.06.2014 10:50 22,3 C 21,7 C 79 % 1017,9 hPa 0,0 l/m 0 min 0 min 0,5 UV-I 172 W/m 6,3 km/h (2 Bft)
08.06.2014 10:52 22,3 C 21,7 C 79 % 1018,0 hPa 0,0 l/m 0 min 0 min 0,0 UV-I 125 W/m 10,5 km/h (2 Bft)
08.06.2014 10:54 22,2 C 21,1 C 79 % 1018,0 hPa 0,0 l/m 0 min 0 min 0,0 UV-I 86 W/m 4,2 km/h (1 Bft)
08.06.2014 10:56 22,2 C 21,1 C 80 % 1018,4 hPa 0,0 l/m 0 min 0 min 0,0 UV-I 54 W/m 0,0 km/h (0 Bft)
08.06.2014 10:58 22,2 C 21,1 C 80 % 1018,5 hPa 0,0 l/m 0 min 0 min 0,0 UV-I 26 W/m 10,5 km/h (2 Bft)
08.06.2014 11:00 22,1 C 20,6 C 80 % 1018,9 hPa 0,0 l/m 0 min 0 min 0,0 UV-I 18 W/m 12,6 km/h (3 Bft)
08.06.2014 11:02 22,0 C 20,6 C 81 % 1019,2 hPa 0,0 l/m 0 min 0 min 0,0 UV-I 12 W/m 16,7 km/h (3 Bft)
08.06.2014 11:04 21,9 C 20,0 C 81 % 1019,7 hPa 0,0 l/m 0 min 0 min 0,0 UV-I 7 W/m 18,8 km/h (3 Bft)
08.06.2014 11:06 21,8 C 20,0 C 81 % 1020,0 hPa 0,0 l/m 0 min 0 min 0,0 UV-I 0 W/m 31,4 km/h (5 Bft)
08.06.2014 11:08 21,7 C 18,3 C 83 % 1020,1 hPa 0,4 l/m 0 min 2 min 0,0 UV-I 5 W/m 29,3 km/h (5 Bft)
08.06.2014 11:10 21,4 C 17,8 C 83 % 1019,4 hPa 1,6 l/m 0 min 2 min 0,0 UV-I 9 W/m 43,9 km/h (6 Bft)
08.06.2014 11:12 21,0 C 17,2 C 85 % 1019,0 hPa 2,8 l/m 0 min 2 min 0,0 UV-I 12 W/m 33,5 km/h (5 Bft)
08.06.2014 11:14 20,4 C 17,2 C 86 % 1018,6 hPa 1,2 l/m 0 min 2 min 0,0 UV-I 14 W/m 33,5 km/h (5 Bft)
08.06.2014 11:16 20,0 C 16,7 C 88 % 1018,1 hPa 1,0 l/m 0 min 2 min 0,0 UV-I 16 W/m 29,3 km/h (5 Bft)
08.06.2014 11:18 19,7 C 16,7 C 89 % 1018,0 hPa 0,6 l/m 0 min 2 min 0,0 UV-I 18 W/m 27,2 km/h (4 Bft)
08.06.2014 11:20 19,3 C 16,7 C 89 % 1017,8 hPa 0,4 l/m 0 min 2 min 0,0 UV-I 18 W/m 29,3 km/h (5 Bft)
08.06.2014 11:22 18,8 C 16,1 C 89 % 1017,9 hPa 0,4 l/m 0 min 2 min 0,0 UV-I 18 W/m 37,7 km/h (5 Bft)
08.06.2014 11:24 18,4 C 15,6 C 89 % 1017,9 hPa 0,4 l/m 0 min 2 min 0,0 UV-I 18 W/m 27,2 km/h (4 Bft)
08.06.2014 11:26 18,2 C 15,6 C 90 % 1017,9 hPa 0,6 l/m 0 min 2 min 0,0 UV-I 16 W/m 23,0 km/h (4 Bft)
08.06.2014 11:28 18,1 C 15,6 C 90 % 1017,9 hPa 0,4 l/m 0 min 2 min 0,0 UV-I 16 W/m 23,0 km/h (4 Bft)
08.06.2014 11:30 17,9 C 15,6 C 90 % 1017,9 hPa 0,2 l/m 0 min 2 min 0,0 UV-I 16 W/m 18,8 km/h (3 Bft)
08.06.2014 11:32 17,9 C 15,6 C 91 % 1017,7 hPa 0,0 l/m 0 min 2 min 0,0 UV-I 16 W/m 20,9 km/h (4 Bft)
08.06.2014 11:34 17,9 C 15,6 C 91 % 1017,5 hPa 0,2 l/m 0 min 2 min 0,0 UV-I 18 W/m 12,6 km/h (3 Bft)
08.06.2014 11:36 17,9 C 15,6 C 91 % 1017,2 hPa 0,0 l/m 0 min 2 min 0,0 UV-I 19 W/m 16,7 km/h (3 Bft)
08.06.2014 11:38 17,9 C 15,6 C 91 % 1017,2 hPa 0,0 l/m 0 min 2 min 0,0 UV-I 21 W/m 10,5 km/h (2 Bft)
08.06.2014 11:40 17,8 C 15,6 C 91 % 1017,4 hPa 0,0 l/m 0 min 0 min 0,0 UV-I 25 W/m 2,1 km/h (1 Bft)
08.06.2014 11:42 17,8 C 15,6 C 91 % 1017,6 hPa 0,0 l/m 0 min 0 min 0,0 UV-I 28 W/m 8,4 km/h (2 Bft)
08.06.2014 11:44 17,8 C 15,6 C 91 % 1017,6 hPa 0,0 l/m 0 min 0 min 0,0 UV-I 33 W/m 16,7 km/h (3 Bft)
08.06.2014 11:46 17,9 C 15,6 C 91 % 1017,4 hPa 0,0 l/m 0 min 0 min 0,0 UV-I 39 W/m 18,8 km/h (3 Bft)
08.06.2014 11:48 17,8 C 15,6 C 91 % 1017,5 hPa 0,0 l/m 0 min 0 min 0,0 UV-I 46 W/m 16,7 km/h (3 Bft)
08.06.2014 11:50 17,8 C 15,6 C 92 % 1017,5 hPa 0,0 l/m 0 min 0 min 0,0 UV-I 58 W/m 18,8 km/h (3 Bft)
08.06.2014 11:52 17,7 C 15,6 C 92 % 1017,4 hPa 0,0 l/m 0 min 0 min 0,0 UV-I 69 W/m 14,6 km/h (3 Bft)
08.06.2014 11:54 17,7 C 15,6 C 92 % 1017,4 hPa 0,0 l/m 0 min 0 min 0,0 UV-I 83 W/m 10,5 km/h (2 Bft)
08.06.2014 11:56 17,7 C 16,1 C 93 % 1017,5 hPa 0,0 l/m 0 min 0 min 0,0 UV-I 113 W/m 12,6 km/h (3 Bft)
08.06.2014 11:58 17,8 C 16,1 C 94 % 1017,5 hPa 0,0 l/m 0 min 0 min 1,0 UV-I 139 W/m 12,6 km/h (3 Bft)
08.06.2014 12:00 17,8 C 16,7 C 94 % 1017,4 hPa 0,0 l/m 0 min 0 min 1,5 UV-I 188 W/m 6,3 km/h (2 Bft)
08.06.2014 12:02 17,9 C 17,2 C 94 % 1017,4 hPa 0,0 l/m 0 min 0 min 2,1 UV-I 264 W/m 6,3 km/h (2 Bft)
08.06.2014 12:06 18,2 C 18,3 C 95 % 1017,5 hPa 0,0 l/m 0 min 0 min 2,7 UV-I 264 W/m 10,5 km/h (2 Bft)
08.06.2014 12:08 18,4 C 18,3 C 95 % 1017,5 hPa 0,0 l/m 2 min 0 min 3,1 UV-I 471 W/m 10,5 km/h (2 Bft)
08.06.2014 12:10 18,8 C 19,4 C 95 % 1017,5 hPa 0,0 l/m 2 min 0 min 4,8 UV-I 541 W/m 16,7 km/h (3 Bft)
08.06.2014 12:12 19,1 C 21,1 C 95 % 1017,6 hPa 0,0 l/m 2 min 0 min 5,0 UV-I 867 W/m 14,6 km/h (3 Bft)
08.06.2014 12:14 19,6 C 22,2 C 95 % 1017,7 hPa 0,0 l/m 2 min 0 min 4,9 UV-I 810 W/m 14,6 km/h (3 Bft)
08.06.2014 12:16 19,6 C 22,2 C 94 % 1017,8 hPa 0,0 l/m 2 min 0 min 2,2 UV-I 758 W/m 10,5 km/h (2 Bft)
08.06.2014 12:18 19,7 C 22,2 C 93 % 1017,9 hPa 0,0 l/m 2 min 0 min 4,8 UV-I 758 W/m 10,5 km/h (2 Bft)
08.06.2014 12:20 19,7 C 22,2 C 91 % 1018,0 hPa 0,0 l/m 2 min 0 min 4,8 UV-I 758 W/m 10,5 km/h (2 Bft)
08.06.2014 12:22 19,9 C 22,2 C 91 % 1018,1 hPa 0,0 l/m 2 min 0 min 4,8 UV-I 693 W/m 2,1 km/h (1 Bft)
08.06.2014 12:24 20,2 C 22,8 C 91 % 1018,3 hPa 0,0 l/m 2 min 0 min 4,8 UV-I 693 W/m 8,4 km/h (2 Bft)
08.06.2014 12:26 20,5 C 22,8 C 92 % 1018,3 hPa 0,0 l/m 2 min 0 min 4,9 UV-I 666 W/m 10,5 km/h (2 Bft)
08.06.2014 12:28 20,7 C 22,8 C 91 % 1018,4 hPa 0,0 l/m 2 min 0 min 4,9 UV-I 666 W/m 6,3 km/h (2 Bft)
08.06.2014 12:30 20,8 C 22,8 C 90 % 1018,5 hPa 0,0 l/m 2 min 0 min 5,1 UV-I 666 W/m 0,0 km/h (0 Bft)
08.06.2014 12:32 21,0 C 22,8 C 90 % 1018,6 hPa 0,0 l/m 2 min 0 min 5,1 UV-I 666 W/m 6,3 km/h (2 Bft)
08.06.2014 12:34 21,1 C 23,3 C 89 % 1018,5 hPa 0,0 l/m 2 min 0 min 5,2 UV-I 666 W/m 6,3 km/h (2 Bft)
08.06.2014 12:36 21,2 C 23,3 C 89 % 1018,5 hPa 0,0 l/m 2 min 0 min 5,2 UV-I 666 W/m 2,1 km/h (1 Bft)
08.06.2014 12:38 21,4 C 23,3 C 88 % 1018,4 hPa 0,0 l/m 2 min 0 min 5,1 UV-I 666 W/m 8,4 km/h (2 Bft)
08.06.2014 12:40 21,3 C 22,8 C 87 % 1018,3 hPa 0,0 l/m 2 min 0 min 5,2 UV-I 666 W/m 12,6 km/h (3 Bft)
08.06.2014 12:42 21,3 C 22,8 C 88 % 1018,3 hPa 0,0 l/m 2 min 0 min 5,3 UV-I 666 W/m 6,3 km/h (2 Bft)
08.06.2014 12:44 21,2 C 23,3 C 86 % 1018,4 hPa 0,0 l/m 2 min 0 min 5,3 UV-I 666 W/m 10,5 km/h (2 Bft)
08.06.2014 12:46 21,3 C 23,3 C 87 % 1018,4 hPa 0,0 l/m 2 min 0 min 5,3 UV-I 666 W/m 10,5 km/h (2 Bft)
08.06.2014 12:48 21,6 C 23,3 C 88 % 1018,3 hPa 0,0 l/m 2 min 0 min 5,3 UV-I 666 W/m 2,1 km/h (1 Bft)
08.06.2014 12:50 21,7 C 23,3 C 87 % 1018,4 hPa 0,0 l/m 2 min 0 min 5,3 UV-I 666 W/m 4,2 km/h (1 Bft)
08.06.2014 12:52 21,6 C 22,8 C 85 % 1018,4 hPa 0,0 l/m 2 min 0 min 5,3 UV-I 666 W/m 0,0 km/h (0 Bft)
08.06.2014 12:54 21,9 C 22,8 C 88 % 1018,3 hPa 0,0 l/m 2 min 0 min 5,4 UV-I 666 W/m 2,1 km/h (1 Bft)
08.06.2014 12:56 22,4 C 23,3 C 89 % 1018,4 hPa 0,0 l/m 2 min 0 min 5,4 UV-I 666 W/m 8,4 km/h (2 Bft)
08.06.2014 12:58 22,6 C 23,3 C 88 % 1018,3 hPa 0,0 l/m 2 min 0 min 5,4 UV-I 666 W/m 0,0 km/h (0 Bft)
08.06.2014 13:00 22,7 C 23,3 C 87 % 1018,3 hPa 0,0 l/m 2 min 0 min 5,5 UV-I 666 W/m 8,4 km/h (2 Bft)
08.06.2014 13:02 22,7 C 23,3 C 85 % 1018,3 hPa 0,0 l/m 2 min 0 min 5,6 UV-I 666 W/m 4,2 km/h (1 Bft)
08.06.2014 13:04 22,8 C 23,3 C 87 % 1018,3 hPa 0,0 l/m 2 min 0 min 5,5 UV-I 666 W/m 6,3 km/h (2 Bft)
08.06.2014 13:06 22,9 C 23,9 C 86 % 1018,3 hPa 0,0 l/m 2 min 0 min 5,5 UV-I 666 W/m 12,6 km/h (3 Bft)
08.06.2014 13:08 23,2 C 23,9 C 87 % 1018,3 hPa 0,0 l/m 2 min 0 min 5,5 UV-I 666 W/m 10,5 km/h (2 Bft)
08.06.2014 13:10 23,3 C 24,4 C 87 % 1018,3 hPa 0,0 l/m 2 min 0 min 5,5 UV-I 666 W/m 6,3 km/h (2 Bft)
08.06.2014 13:12 23,1 C 25,0 C 83 % 1018,2 hPa 0,0 l/m 2 min 0 min 5,5 UV-I 666 W/m 2,1 km/h (1 Bft)
08.06.2014 13:14 23,1 C 25,6 C 85 % 1018,2 hPa 0,0 l/m 2 min 0 min 5,6 UV-I 666 W/m 12,6 km/h (3 Bft)
08.06.2014 13:16 23,3 C 25,0 C 86 % 1018,3 hPa 0,0 l/m 2 min 0 min 5,6 UV-I 666 W/m 6,3 km/h (2 Bft)
08.06.2014 13:18 23,6 C 24,4 C 86 % 1018,3 hPa 0,0 l/m 2 min 0 min 4,5 UV-I 666 W/m 2,1 km/h (1 Bft)
08.06.2014 13:20 23,7 C 24,4 C 86 % 1018,3 hPa 0,0 l/m 2 min 0 min 5,5 UV-I 666 W/m 0,0 km/h (0 Bft)
08.06.2014 13:22 23,8 C 23,9 C 85 % 1018,2 hPa 0,0 l/m 2 min 0 min 5,6 UV-I 666 W/m 2,1 km/h (1 Bft)
08.06.2014 13:24 23,9 C 23,9 C 85 % 1018,2 hPa 0,0 l/m 2 min 0 min 5,6 UV-I 666 W/m 8,4 km/h (2 Bft)
08.06.2014 13:26 23,9 C 23,9 C 84 % 1018,2 hPa 0,0 l/m 2 min 0 min 5,5 UV-I 666 W/m 10,5 km/h (2 Bft)
08.06.2014 13:28 23,9 C 23,9 C 84 % 1018,2 hPa 0,0 l/m 2 min 0 min 5,5 UV-I 666 W/m 4,2 km/h (1 Bft)
08.06.2014 13:30 24,1 C 23,9 C 85 % 1018,2 hPa 0,0 l/m 2 min 0 min 5,6 UV-I 666 W/m 2,1 km/h (1 Bft)
08.06.2014 13:32 24,3 C 23,9 C 85 % 1018,2 hPa 0,0 l/m 2 min 0 min 5,6 UV-I 666 W/m 10,5 km/h (2 Bft)
08.06.2014 13:34 24,3 C 23,9 C 81 % 1018,1 hPa 0,0 l/m 2 min 0 min 5,7 UV-I 666 W/m 10,5 km/h (2 Bft)
08.06.2014 13:36 24,2 C 23,9 C 80 % 1018,2 hPa 0,0 l/m 2 min 0 min 5,7 UV-I 666 W/m 12,6 km/h (3 Bft)
08.06.2014 13:38 24,1 C 23,9 C 80 % 1018,2 hPa 0,0 l/m 2 min 0 min 5,6 UV-I 666 W/m 8,4 km/h (2 Bft)
08.06.2014 13:40 24,2 C 23,9 C 83 % 1018,2 hPa 0,0 l/m 2 min 0 min 5,6 UV-I 666 W/m 12,6 km/h (3 Bft)
08.06.2014 13:42 24,2 C 23,9 C 79 % 1018,1 hPa 0,0 l/m 2 min 0 min 5,6 UV-I 666 W/m 10,5 km/h (2 Bft)
08.06.2014 13:44 24,1 C 23,3 C 81 % 1018,1 hPa 0,0 l/m 2 min 0 min 5,6 UV-I 666 W/m 10,5 km/h (2 Bft)
08.06.2014 13:46 24,1 C 23,9 C 81 % 1018,1 hPa 0,0 l/m 2 min 0 min 5,7 UV-I 666 W/m 16,7 km/h (3 Bft)
08.06.2014 13:48 24,1 C 23,3 C 80 % 1018,1 hPa 0,0 l/m 2 min 0 min 5,6 UV-I 666 W/m 16,7 km/h (3 Bft)
08.06.2014 13:50 24,0 C 23,3 C 80 % 1018,1 hPa 0,0 l/m 2 min 0 min 5,6 UV-I 666 W/m 10,5 km/h (2 Bft)
08.06.2014 13:52 24,3 C 23,9 C 83 % 1018,1 hPa 0,0 l/m 2 min 0 min 5,6 UV-I 666 W/m 10,5 km/h (2 Bft)
08.06.2014 13:54 24,4 C 23,9 C 80 % 1018,1 hPa 0,0 l/m 2 min 0 min 5,7 UV-I 666 W/m 10,5 km/h (2 Bft)
08.06.2014 13:56 24,4 C 23,9 C 79 % 1018,1 hPa 0,0 l/m 2 min 0 min 5,6 UV-I 666 W/m 16,7 km/h (3 Bft)
08.06.2014 13:58 24,4 C 23,9 C 78 % 1018,1 hPa 0,0 l/m 2 min 0 min 5,6 UV-I 666 W/m 12,6 km/h (3 Bft)
08.06.2014 14:00 24,6 C 23,9 C 81 % 1018,0 hPa 0,0 l/m 2 min 0 min 5,6 UV-I 666 W/m 10,5 km/h (2 Bft)
08.06.2014 14:02 24,6 C 23,9 C 78 % 1018,0 hPa 0,0 l/m 2 min 0 min 5,6 UV-I 666 W/m 14,6 km/h (3 Bft)
08.06.2014 14:04 24,7 C 24,4 C 78 % 1018,0 hPa 0,0 l/m 2 min 0 min 5,6 UV-I 666 W/m 23,0 km/h (4 Bft)
08.06.2014 14:06 24,6 C 24,4 C 76 % 1018,0 hPa 0,0 l/m 2 min 0 min 5,6 UV-I 666 W/m 16,7 km/h (3 Bft)
08.06.2014 14:08 24,5 C 25,6 C 77 % 1018,0 hPa 0,0 l/m 2 min 0 min 5,6 UV-I 666 W/m 12,6 km/h (3 Bft)
08.06.2014 14:10 24,5 C 25,0 C 78 % 1018,0 hPa 0,0 l/m 2 min 0 min 5,5 UV-I 666 W/m 14,6 km/h (3 Bft)
08.06.2014 14:12 24,6 C 24,4 C 78 % 1018,0 hPa 0,0 l/m 2 min 0 min 5,3 UV-I 666 W/m 10,5 km/h (2 Bft)
08.06.2014 14:14 24,6 C 24,4 C 79 % 1017,9 hPa 0,0 l/m 2 min 0 min 5,5 UV-I 666 W/m 16,7 km/h (3 Bft)
08.06.2014 14:16 24,7 C 23,9 C 77 % 1017,9 hPa 0,0 l/m 2 min 0 min 5,5 UV-I 717 W/m 18,8 km/h (3 Bft)
08.06.2014 14:18 24,6 C 23,9 C 77 % 1018,0 hPa 0,0 l/m 2 min 0 min 5,5 UV-I 758 W/m 14,6 km/h (3 Bft)
08.06.2014 14:20 24,8 C 23,9 C 79 % 1017,9 hPa 0,0 l/m 2 min 0 min 5,4 UV-I 773 W/m 14,6 km/h (3 Bft)
08.06.2014 14:22 24,9 C 23,9 C 79 % 1017,9 hPa 0,0 l/m 2 min 0 min 5,4 UV-I 789 W/m 16,7 km/h (3 Bft)
08.06.2014 14:24 25,1 C 23,9 C 76 % 1017,9 hPa 0,0 l/m 2 min 0 min 5,4 UV-I 786 W/m 12,6 km/h (3 Bft)
08.06.2014 14:26 25,0 C 24,4 C 76 % 1018,0 hPa 0,0 l/m 2 min 0 min 5,4 UV-I 786 W/m 16,7 km/h (3 Bft)
08.06.2014 14:28 24,9 C 23,9 C 75 % 1018,0 hPa 0,0 l/m 2 min 0 min 5,3 UV-I 777 W/m 12,6 km/h (3 Bft)
08.06.2014 14:30 25,0 C 24,4 C 77 % 1018,1 hPa 0,0 l/m 2 min 0 min 5,3 UV-I 784 W/m 8,4 km/h (2 Bft)
08.06.2014 14:32 25,1 C 24,4 C 76 % 1018,1 hPa 0,0 l/m 2 min 0 min 5,0 UV-I 784 W/m 12,6 km/h (3 Bft)
08.06.2014 14:34 25,0 C 23,9 C 76 % 1018,1 hPa 0,0 l/m 2 min 0 min 4,5 UV-I 650 W/m 10,5 km/h (2 Bft)
08.06.2014 14:36 25,0 C 24,4 C 77 % 1018,2 hPa 0,0 l/m 2 min 0 min 5,3 UV-I 455 W/m 8,4 km/h (2 Bft)
08.06.2014 14:38 25,0 C 24,4 C 77 % 1018,1 hPa 0,0 l/m 2 min 0 min 5,6 UV-I 874 W/m 10,5 km/h (2 Bft)
08.06.2014 14:40 24,9 C 24,4 C 75 % 1018,2 hPa 0,0 l/m 2 min 0 min 5,5 UV-I 858 W/m 8,4 km/h (2 Bft)
08.06.2014 14:42 24,9 C 24,4 C 77 % 1018,2 hPa 0,0 l/m 2 min 0 min 5,1 UV-I 788 W/m 8,4 km/h (2 Bft)
08.06.2014 14:44 24,8 C 24,4 C 76 % 1018,2 hPa 0,0 l/m 2 min 0 min 5,2 UV-I 784 W/m 8,4 km/h (2 Bft)
08.06.2014 14:46 24,8 C 24,4 C 80 % 1018,1 hPa 0,0 l/m 2 min 0 min 5,0 UV-I 772 W/m 6,3 km/h (2 Bft)
08.06.2014 14:48 25,3 C 25,0 C 81 % 1018,0 hPa 0,0 l/m 2 min 0 min 5,0 UV-I 779 W/m 8,4 km/h (2 Bft)
08.06.2014 14:50 25,6 C 25,0 C 78 % 1018,1 hPa 0,0 l/m 2 min 0 min 5,1 UV-I 782 W/m 12,6 km/h (3 Bft)
08.06.2014 14:52 25,6 C 25,0 C 76 % 1018,0 hPa 0,0 l/m 2 min 0 min 5,1 UV-I 807 W/m 14,6 km/h (3 Bft)
08.06.2014 14:54 25,3 C 24,4 C 75 % 1018,1 hPa 0,0 l/m 2 min 0 min 5,1 UV-I 819 W/m 12,6 km/h (3 Bft)
08.06.2014 14:56 25,3 C 24,4 C 77 % 1018,0 hPa 0,0 l/m 2 min 0 min 5,0 UV-I 819 W/m 14,6 km/h (3 Bft)
08.06.2014 14:58 25,1 C 24,4 C 76 % 1018,1 hPa 0,0 l/m 2 min 0 min 5,2 UV-I 733 W/m 12,6 km/h (3 Bft)
08.06.2014 15:00 25,1 C 24,4 C 77 % 1018,0 hPa 0,0 l/m 2 min 0 min 4,0 UV-I 733 W/m 8,4 km/h (2 Bft)
08.06.2014 15:02 25,2 C 24,4 C 75 % 1018,0 hPa 0,0 l/m 2 min 0 min 5,3 UV-I 733 W/m 8,4 km/h (2 Bft)
08.06.2014 15:04 25,3 C 25,0 C 76 % 1018,0 hPa 0,0 l/m 2 min 0 min 4,6 UV-I 833 W/m 8,4 km/h (2 Bft)
08.06.2014 15:06 25,4 C 24,4 C 75 % 1018,0 hPa 0,0 l/m 2 min 0 min 5,0 UV-I 786 W/m 6,3 km/h (2 Bft)
08.06.2014 15:08 25,4 C 25,0 C 74 % 1018,0 hPa 0,0 l/m 2 min 0 min 4,9 UV-I 773 W/m 8,4 km/h (2 Bft)
08.06.2014 15:10 25,7 C 25,0 C 74 % 1018,0 hPa 0,0 l/m 2 min 0 min 4,8 UV-I 759 W/m 12,6 km/h (3 Bft)
08.06.2014 15:12 25,7 C 25,0 C 72 % 1017,9 hPa 0,0 l/m 2 min 0 min 4,9 UV-I 763 W/m 18,8 km/h (3 Bft)
08.06.2014 15:14 25,8 C 25,0 C 73 % 1018,0 hPa 0,0 l/m 2 min 0 min 4,8 UV-I 754 W/m 14,6 km/h (3 Bft)
08.06.2014 15:16 25,9 C 25,0 C 71 % 1017,9 hPa 0,0 l/m 2 min 0 min 4,7 UV-I 752 W/m 14,6 km/h (3 Bft)
08.06.2014 15:18 25,8 C 25,0 C 70 % 1017,9 hPa 0,0 l/m 2 min 0 min 4,7 UV-I 756 W/m 12,6 km/h (3 Bft)
08.06.2014 15:20 25,7 C 25,0 C 71 % 1017,9 hPa 0,0 l/m 2 min 0 min 4,7 UV-I 754 W/m 4,2 km/h (1 Bft)
08.06.2014 15:22 25,8 C 25,0 C 72 % 1017,9 hPa 0,0 l/m 2 min 0 min 4,7 UV-I 745 W/m 14,6 km/h (3 Bft)
08.06.2014 15:24 25,8 C 25,0 C 72 % 1017,9 hPa 0,0 l/m 2 min 0 min 4,7 UV-I 758 W/m 16,7 km/h (3 Bft)
08.06.2014 15:26 25,8 C 25,0 C 71 % 1018,0 hPa 0,0 l/m 2 min 0 min 4,6 UV-I 747 W/m 16,7 km/h (3 Bft)
08.06.2014 15:28 25,9 C 25,0 C 71 % 1017,9 hPa 0,0 l/m 2 min 0 min 4,5 UV-I 729 W/m 8,4 km/h (2 Bft)
08.06.2014 15:30 25,9 C 25,0 C 69 % 1018,0 hPa 0,0 l/m 2 min 0 min 4,5 UV-I 738 W/m 18,8 km/h (3 Bft)
08.06.2014 15:32 25,9 C 25,0 C 70 % 1018,0 hPa 0,0 l/m 2 min 0 min 4,6 UV-I 745 W/m 16,7 km/h (3 Bft)
08.06.2014 15:34 25,8 C 25,0 C 70 % 1018,0 hPa 0,0 l/m 2 min 0 min 4,4 UV-I 737 W/m 14,6 km/h (3 Bft)
08.06.2014 15:36 25,9 C 25,0 C 71 % 1018,0 hPa 0,0 l/m 2 min 0 min 4,4 UV-I 737 W/m 8,4 km/h (2 Bft)
08.06.2014 15:38 25,9 C 25,0 C 72 % 1018,0 hPa 0,0 l/m 2 min 0 min 4,4 UV-I 722 W/m 16,7 km/h (3 Bft)
08.06.2014 15:40 25,8 C 25,0 C 72 % 1018,0 hPa 0,0 l/m 2 min 0 min 4,3 UV-I 724 W/m 16,7 km/h (3 Bft)
08.06.2014 15:42 25,8 C 25,0 C 72 % 1018,0 hPa 0,0 l/m 2 min 0 min 4,2 UV-I 719 W/m 18,8 km/h (3 Bft)
08.06.2014 15:44 25,8 C 25,0 C 73 % 1018,0 hPa 0,0 l/m 2 min 0 min 4,3 UV-I 724 W/m 14,6 km/h (3 Bft)
08.06.2014 15:46 26,0 C 25,0 C 73 % 1018,0 hPa 0,0 l/m 2 min 0 min 4,2 UV-I 721 W/m 12,6 km/h (3 Bft)
08.06.2014 15:48 26,2 C 25,0 C 70 % 1018,0 hPa 0,0 l/m 2 min 0 min 4,2 UV-I 714 W/m 20,9 km/h (4 Bft)
08.06.2014 15:50 26,1 C 25,0 C 70 % 1018,1 hPa 0,0 l/m 2 min 0 min 4,1 UV-I 712 W/m 18,8 km/h (3 Bft)
08.06.2014 15:52 26,1 C 25,6 C 72 % 1018,0 hPa 0,0 l/m 2 min 0 min 4,1 UV-I 708 W/m 14,6 km/h (3 Bft)
08.06.2014 15:54 26,1 C 25,0 C 73 % 1018,0 hPa 0,0 l/m 2 min 0 min 4,0 UV-I 710 W/m 14,6 km/h (3 Bft)
08.06.2014 15:56 26,2 C 25,6 C 74 % 1018,0 hPa 0,0 l/m 2 min 0 min 4,0 UV-I 710 W/m 16,7 km/h (3 Bft)
08.06.2014 15:58 26,3 C 25,0 C 70 % 1018,0 hPa 0,0 l/m 2 min 0 min 4,0 UV-I 712 W/m 10,5 km/h (2 Bft)
08.06.2014 16:00 26,1 C 25,0 C 69 % 1018,0 hPa 0,0 l/m 2 min 0 min 4,0 UV-I 710 W/m 14,6 km/h (3 Bft)
08.06.2014 16:02 26,1 C 25,0 C 71 % 1018,0 hPa 0,0 l/m 2 min 0 min 4,0 UV-I 703 W/m 14,6 km/h (3 Bft)
08.06.2014 16:04 26,1 C 25,6 C 70 % 1017,9 hPa 0,0 l/m 2 min 0 min 3,9 UV-I 700 W/m 20,9 km/h (4 Bft)
08.06.2014 16:06 26,2 C 25,6 C 69 % 1017,9 hPa 0,0 l/m 2 min 0 min 3,8 UV-I 696 W/m 16,7 km/h (3 Bft)
08.06.2014 16:08 26,1 C 25,6 C 71 % 1017,8 hPa 0,0 l/m 2 min 0 min 3,8 UV-I 693 W/m 10,5 km/h (2 Bft)
08.06.2014 16:10 26,2 C 25,6 C 72 % 1017,9 hPa 0,0 l/m 2 min 0 min 3,8 UV-I 691 W/m 10,5 km/h (2 Bft)
08.06.2014 16:12 26,3 C 26,1 C 70 % 1017,8 hPa 0,0 l/m 2 min 0 min 3,7 UV-I 686 W/m 12,6 km/h (3 Bft)
08.06.2014 16:14 26,2 C 25,6 C 69 % 1017,8 hPa 0,0 l/m 2 min 0 min 3,7 UV-I 682 W/m 14,6 km/h (3 Bft)
08.06.2014 16:16 26,1 C 25,6 C 71 % 1017,8 hPa 0,0 l/m 2 min 0 min 3,6 UV-I 680 W/m 12,6 km/h (3 Bft)
08.06.2014 16:18 25,9 C 25,6 C 70 % 1017,8 hPa 0,0 l/m 2 min 0 min 3,6 UV-I 675 W/m 18,8 km/h (3 Bft)
08.06.2014 16:20 25,9 C 25,6 C 71 % 1017,9 hPa 0,0 l/m 2 min 0 min 3,5 UV-I 671 W/m 16,7 km/h (3 Bft)
08.06.2014 16:22 26,0 C 25,6 C 73 % 1017,8 hPa 0,0 l/m 2 min 0 min 3,5 UV-I 671 W/m 14,6 km/h (3 Bft)
08.06.2014 16:24 26,0 C 25,6 C 71 % 1017,8 hPa 0,0 l/m 2 min 0 min 3,4 UV-I 670 W/m 12,6 km/h (3 Bft)
08.06.2014 16:26 26,3 C 26,1 C 73 % 1017,8 hPa 0,0 l/m 2 min 0 min 3,4 UV-I 664 W/m 16,7 km/h (3 Bft)
08.06.2014 16:28 26,3 C 26,1 C 71 % 1017,7 hPa 0,0 l/m 2 min 0 min 3,3 UV-I 656 W/m 18,8 km/h (3 Bft)
08.06.2014 16:30 26,3 C 25,6 C 68 % 1017,8 hPa 0,0 l/m 2 min 0 min 3,3 UV-I 657 W/m 16,7 km/h (3 Bft)
08.06.2014 16:32 26,2 C 25,6 C 68 % 1017,8 hPa 0,0 l/m 2 min 0 min 3,2 UV-I 671 W/m 20,9 km/h (4 Bft)
08.06.2014 16:34 26,1 C 25,6 C 68 % 1017,8 hPa 0,0 l/m 2 min 0 min 2,7 UV-I 547 W/m 16,7 km/h (3 Bft)
08.06.2014 16:36 26,1 C 25,0 C 69 % 1017,8 hPa 0,0 l/m 2 min 0 min 3,1 UV-I 547 W/m 18,8 km/h (3 Bft)
08.06.2014 16:38 26,1 C 25,0 C 69 % 1017,8 hPa 0,0 l/m 2 min 0 min 3,1 UV-I 647 W/m 14,6 km/h (3 Bft)
08.06.2014 16:40 26,1 C 25,0 C 69 % 1017,8 hPa 0,0 l/m 2 min 0 min 3,1 UV-I 650 W/m 16,7 km/h (3 Bft)
08.06.2014 16:42 26,2 C 25,6 C 68 % 1017,9 hPa 0,0 l/m 2 min 0 min 3,0 UV-I 643 W/m 16,7 km/h (3 Bft)
08.06.2014 16:44 26,2 C 25,0 C 68 % 1017,9 hPa 0,0 l/m 2 min 0 min 2,9 UV-I 626 W/m 16,7 km/h (3 Bft)
08.06.2014 16:46 26,2 C 25,0 C 70 % 1017,8 hPa 0,0 l/m 2 min 0 min 2,9 UV-I 622 W/m 20,9 km/h (4 Bft)
08.06.2014 16:48 26,1 C 25,0 C 69 % 1017,8 hPa 0,0 l/m 2 min 0 min 2,8 UV-I 622 W/m 12,6 km/h (3 Bft)
08.06.2014 16:50 26,1 C 25,0 C 68 % 1017,8 hPa 0,0 l/m 2 min 0 min 2,8 UV-I 629 W/m 16,7 km/h (3 Bft)
08.06.2014 16:52 26,3 C 25,6 C 69 % 1017,9 hPa 0,0 l/m 2 min 0 min 2,2 UV-I 580 W/m 16,7 km/h (3 Bft)
08.06.2014 16:54 26,4 C 25,6 C 67 % 1017,8 hPa 0,0 l/m 2 min 0 min 2,2 UV-I 580 W/m 14,6 km/h (3 Bft)
08.06.2014 16:56 26,3 C 25,0 C 67 % 1017,8 hPa 0,0 l/m 2 min 0 min 2,0 UV-I 417 W/m 14,6 km/h (3 Bft)
08.06.2014 16:58 26,2 C 25,0 C 70 % 1017,8 hPa 0,0 l/m 2 min 0 min 2,2 UV-I 364 W/m 8,4 km/h (2 Bft)
08.06.2014 17:00 26,2 C 25,0 C 69 % 1017,8 hPa 0,0 l/m 2 min 0 min 2,6 UV-I 631 W/m 14,6 km/h (3 Bft)
08.06.2014 17:02 26,2 C 25,6 C 70 % 1017,8 hPa 0,0 l/m 2 min 0 min 2,6 UV-I 621 W/m 16,7 km/h (3 Bft)
08.06.2014 17:04 26,4 C 25,6 C 67 % 1017,7 hPa 0,0 l/m 2 min 0 min 2,5 UV-I 603 W/m 16,7 km/h (3 Bft)
08.06.2014 17:06 26,4 C 25,6 C 68 % 1017,8 hPa 0,0 l/m 2 min 0 min 2,4 UV-I 587 W/m 16,7 km/h (3 Bft)
08.06.2014 17:08 26,4 C 25,6 C 66 % 1017,8 hPa 0,0 l/m 2 min 0 min 2,4 UV-I 580 W/m 10,5 km/h (2 Bft)
08.06.2014 17:10 26,4 C 25,6 C 66 % 1017,8 hPa 0,0 l/m 2 min 0 min 2,4 UV-I 582 W/m 16,7 km/h (3 Bft)
08.06.2014 17:12 26,5 C 25,6 C 68 % 1017,8 hPa 0,0 l/m 2 min 0 min 2,3 UV-I 573 W/m 10,5 km/h (2 Bft)
08.06.2014 17:14 26,6 C 25,6 C 68 % 1017,8 hPa 0,0 l/m 2 min 0 min 2,3 UV-I 577 W/m 16,7 km/h (3 Bft)
08.06.2014 17:16 26,6 C 25,6 C 68 % 1017,7 hPa 0,0 l/m 2 min 0 min 2,2 UV-I 571 W/m 18,8 km/h (3 Bft)
08.06.2014 17:18 26,7 C 25,6 C 69 % 1017,7 hPa 0,0 l/m 2 min 0 min 2,2 UV-I 582 W/m 12,6 km/h (3 Bft)
08.06.2014 17:20 26,6 C 25,6 C 68 % 1017,8 hPa 0,0 l/m 2 min 0 min 2,2 UV-I 584 W/m 20,9 km/h (4 Bft)
08.06.2014 17:22 26,6 C 25,6 C 67 % 1017,8 hPa 0,0 l/m 2 min 0 min 2,1 UV-I 605 W/m 18,8 km/h (3 Bft)
08.06.2014 17:24 26,4 C 25,0 C 67 % 1017,8 hPa 0,0 l/m 0 min 0 min 1,4 UV-I 290 W/m 20,9 km/h (4 Bft)
08.06.2014 17:26 26,4 C 25,0 C 68 % 1017,8 hPa 0,0 l/m 2 min 0 min 1,4 UV-I 350 W/m 16,7 km/h (3 Bft)
08.06.2014 17:28 26,3 C 25,0 C 68 % 1017,8 hPa 0,0 l/m 0 min 0 min 1,6 UV-I 276 W/m 18,8 km/h (3 Bft)
08.06.2014 17:30 26,2 C 25,0 C 70 % 1017,8 hPa 0,0 l/m 0 min 0 min 1,3 UV-I 213 W/m 12,6 km/h (3 Bft)
08.06.2014 17:32 26,2 C 25,0 C 70 % 1017,8 hPa 0,0 l/m 0 min 0 min 1,2 UV-I 216 W/m 10,5 km/h (2 Bft)
08.06.2014 17:34 26,2 C 25,0 C 70 % 1017,8 hPa 0,0 l/m 0 min 0 min 1,2 UV-I 225 W/m 6,3 km/h (2 Bft)
08.06.2014 17:36 26,1 C 25,0 C 71 % 1017,8 hPa 0,0 l/m 0 min 0 min 1,2 UV-I 229 W/m 12,6 km/h (3 Bft)
08.06.2014 17:38 26,1 C 25,0 C 70 % 1017,8 hPa 0,0 l/m 0 min 0 min 1,1 UV-I 195 W/m 18,8 km/h (3 Bft)
08.06.2014 17:40 26,0 C 25,0 C 71 % 1017,7 hPa 0,0 l/m 0 min 0 min 1,1 UV-I 193 W/m 16,7 km/h (3 Bft)
08.06.2014 17:42 25,9 C 25,0 C 71 % 1017,7 hPa 0,0 l/m 0 min 0 min 1,3 UV-I 227 W/m 18,8 km/h (3 Bft)
08.06.2014 17:44 26,0 C 25,0 C 71 % 1017,7 hPa 0,0 l/m 2 min 0 min 1,9 UV-I 652 W/m 10,5 km/h (2 Bft)
08.06.2014 17:46 26,1 C 25,0 C 72 % 1017,7 hPa 0,0 l/m 2 min 0 min 1,9 UV-I 622 W/m 18,8 km/h (3 Bft)
08.06.2014 17:48 26,3 C 25,0 C 70 % 1017,7 hPa 0,0 l/m 2 min 0 min 1,8 UV-I 568 W/m 16,7 km/h (3 Bft)
08.06.2014 17:50 26,4 C 25,0 C 70 % 1017,7 hPa 0,0 l/m 2 min 0 min 1,8 UV-I 582 W/m 14,6 km/h (3 Bft)
08.06.2014 17:52 26,4 C 25,0 C 68 % 1017,7 hPa 0,0 l/m 2 min 0 min 1,7 UV-I 571 W/m 14,6 km/h (3 Bft)
08.06.2014 17:54 26,4 C 25,0 C 67 % 1017,7 hPa 0,0 l/m 2 min 0 min 1,6 UV-I 548 W/m 16,7 km/h (3 Bft)
08.06.2014 17:56 26,4 C 25,0 C 68 % 1017,7 hPa 0,0 l/m 2 min 0 min 1,6 UV-I 538 W/m 18,8 km/h (3 Bft)
08.06.2014 17:58 26,4 C 25,0 C 69 % 1017,7 hPa 0,0 l/m 2 min 0 min 1,5 UV-I 519 W/m 14,6 km/h (3 Bft)
08.06.2014 18:00 26,4 C 25,0 C 69 % 1017,6 hPa 0,0 l/m 2 min 0 min 1,4 UV-I 482 W/m 16,7 km/h (3 Bft)
08.06.2014 18:02 26,4 C 25,0 C 67 % 1017,7 hPa 0,0 l/m 2 min 0 min 1,4 UV-I 473 W/m 16,7 km/h (3 Bft)
08.06.2014 18:06 26,4 C 24,4 C 68 % 1017,7 hPa 0,0 l/m 2 min 0 min 1,3 UV-I 455 W/m 18,8 km/h (3 Bft)
08.06.2014 18:08 26,4 C 24,4 C 69 % 1017,7 hPa 0,0 l/m 2 min 0 min 1,3 UV-I 443 W/m 14,6 km/h (3 Bft)
08.06.2014 18:10 26,3 C 24,4 C 70 % 1017,7 hPa 0,0 l/m 2 min 0 min 1,3 UV-I 446 W/m 16,7 km/h (3 Bft)
08.06.2014 18:12 26,3 C 24,4 C 69 % 1017,7 hPa 0,0 l/m 2 min 0 min 1,2 UV-I 443 W/m 16,7 km/h (3 Bft)
08.06.2014 18:14 26,2 C 24,4 C 69 % 1017,7 hPa 0,0 l/m 2 min 0 min 1,2 UV-I 439 W/m 16,7 km/h (3 Bft)
08.06.2014 18:16 26,1 C 24,4 C 68 % 1017,6 hPa 0,0 l/m 2 min 0 min 1,2 UV-I 431 W/m 16,7 km/h (3 Bft)
08.06.2014 18:18 26,1 C 24,4 C 68 % 1017,6 hPa 0,0 l/m 2 min 0 min 1,1 UV-I 427 W/m 18,8 km/h (3 Bft)
08.06.2014 18:20 26,1 C 24,4 C 69 % 1017,6 hPa 0,0 l/m 2 min 0 min 1,1 UV-I 425 W/m 16,7 km/h (3 Bft)
08.06.2014 18:22 26,1 C 24,4 C 69 % 1017,6 hPa 0,0 l/m 2 min 0 min 1,1 UV-I 427 W/m 16,7 km/h (3 Bft)
08.06.2014 18:24 26,1 C 24,4 C 69 % 1017,6 hPa 0,0 l/m 2 min 0 min 1,1 UV-I 418 W/m 14,6 km/h (3 Bft)
08.06.2014 18:26 26,1 C 24,4 C 68 % 1017,6 hPa 0,0 l/m 2 min 0 min 1,0 UV-I 415 W/m 18,8 km/h (3 Bft)
08.06.2014 18:28 26,1 C 24,4 C 68 % 1017,6 hPa 0,0 l/m 2 min 0 min 1,0 UV-I 408 W/m 16,7 km/h (3 Bft)
08.06.2014 18:30 26,2 C 24,4 C 69 % 1017,6 hPa 0,0 l/m 2 min 0 min 1,0 UV-I 406 W/m 16,7 km/h (3 Bft)
08.06.2014 18:32 26,2 C 24,4 C 70 % 1017,5 hPa 0,0 l/m 2 min 0 min 0,9 UV-I 401 W/m 14,6 km/h (3 Bft)
08.06.2014 18:34 26,2 C 24,4 C 68 % 1017,5 hPa 0,0 l/m 2 min 0 min 0,9 UV-I 392 W/m 16,7 km/h (3 Bft)
08.06.2014 18:36 26,1 C 24,4 C 67 % 1017,5 hPa 0,0 l/m 2 min 0 min 0,9 UV-I 385 W/m 16,7 km/h (3 Bft)
08.06.2014 18:38 26,1 C 24,4 C 69 % 1017,6 hPa 0,0 l/m 2 min 0 min 0,8 UV-I 380 W/m 14,6 km/h (3 Bft)
08.06.2014 18:40 26,1 C 24,4 C 68 % 1017,5 hPa 0,0 l/m 2 min 0 min 0,8 UV-I 374 W/m 14,6 km/h (3 Bft)
08.06.2014 18:42 26,1 C 24,4 C 68 % 1017,5 hPa 0,0 l/m 2 min 0 min 0,8 UV-I 371 W/m 16,7 km/h (3 Bft)
08.06.2014 18:44 26,1 C 24,4 C 67 % 1017,5 hPa 0,0 l/m 2 min 0 min 0,8 UV-I 366 W/m 14,6 km/h (3 Bft)
08.06.2014 18:46 26,1 C 24,4 C 68 % 1017,5 hPa 0,0 l/m 2 min 0 min 0,7 UV-I 360 W/m 10,5 km/h (2 Bft)
08.06.2014 18:48 26,0 C 24,4 C 68 % 1017,5 hPa 0,0 l/m 2 min 0 min 0,7 UV-I 357 W/m 16,7 km/h (3 Bft)
08.06.2014 18:50 25,9 C 24,4 C 69 % 1017,4 hPa 0,0 l/m 2 min 0 min 0,7 UV-I 352 W/m 18,8 km/h (3 Bft)
08.06.2014 18:52 25,9 C 24,4 C 68 % 1017,3 hPa 0,0 l/m 2 min 0 min 0,6 UV-I 343 W/m 20,9 km/h (4 Bft)
08.06.2014 18:54 25,9 C 24,4 C 69 % 1017,3 hPa 0,0 l/m 2 min 0 min 0,6 UV-I 338 W/m 16,7 km/h (3 Bft)
08.06.2014 18:56 26,0 C 24,4 C 69 % 1017,3 hPa 0,0 l/m 2 min 0 min 0,6 UV-I 334 W/m 16,7 km/h (3 Bft)
08.06.2014 18:58 25,9 C 24,4 C 69 % 1017,4 hPa 0,0 l/m 2 min 0 min 0,6 UV-I 327 W/m 16,7 km/h (3 Bft)
08.06.2014 19:00 25,9 C 24,4 C 68 % 1017,4 hPa 0,0 l/m 2 min 0 min 0,5 UV-I 322 W/m 23,0 km/h (4 Bft)
08.06.2014 19:02 25,9 C 23,9 C 68 % 1017,3 hPa 0,0 l/m 2 min 0 min 0,5 UV-I 316 W/m 16,7 km/h (3 Bft)
08.06.2014 19:04 25,9 C 23,9 C 69 % 1017,3 hPa 0,0 l/m 2 min 0 min 0,5 UV-I 308 W/m 20,9 km/h (4 Bft)
08.06.2014 19:06 25,8 C 23,9 C 69 % 1017,3 hPa 0,0 l/m 2 min 0 min 0,0 UV-I 304 W/m 18,8 km/h (3 Bft)
08.06.2014 19:08 25,8 C 23,9 C 68 % 1017,3 hPa 0,0 l/m 2 min 0 min 0,0 UV-I 301 W/m 16,7 km/h (3 Bft)
08.06.2014 19:10 25,8 C 23,9 C 68 % 1017,4 hPa 0,0 l/m 2 min 0 min 0,0 UV-I 294 W/m 16,7 km/h (3 Bft)
08.06.2014 19:12 25,8 C 23,9 C 68 % 1017,4 hPa 0,0 l/m 2 min 0 min 0,0 UV-I 290 W/m 12,6 km/h (3 Bft)
08.06.2014 19:14 25,8 C 23,9 C 68 % 1017,3 hPa 0,0 l/m 2 min 0 min 0,0 UV-I 287 W/m 20,9 km/h (4 Bft)
08.06.2014 19:16 25,7 C 23,9 C 68 % 1017,4 hPa 0,0 l/m 2 min 0 min 0,0 UV-I 279 W/m 16,7 km/h (3 Bft)
08.06.2014 19:18 25,7 C 23,9 C 69 % 1017,4 hPa 0,0 l/m 2 min 0 min 0,0 UV-I 274 W/m 8,4 km/h (2 Bft)
08.06.2014 19:20 25,7 C 23,9 C 70 % 1017,4 hPa 0,0 l/m 2 min 0 min 0,0 UV-I 271 W/m 14,6 km/h (3 Bft)
08.06.2014 19:22 25,6 C 23,9 C 69 % 1017,4 hPa 0,0 l/m 2 min 0 min 0,0 UV-I 265 W/m 23,0 km/h (4 Bft)
08.06.2014 19:24 25,6 C 23,9 C 69 % 1017,5 hPa 0,0 l/m 2 min 0 min 0,0 UV-I 260 W/m 16,7 km/h (3 Bft)
08.06.2014 19:26 25,6 C 23,9 C 69 % 1017,4 hPa 0,0 l/m 2 min 0 min 0,0 UV-I 258 W/m 18,8 km/h (3 Bft)
08.06.2014 19:28 25,6 C 23,9 C 69 % 1017,4 hPa 0,0 l/m 2 min 0 min 0,0 UV-I 251 W/m 14,6 km/h (3 Bft)
08.06.2014 19:30 25,5 C 23,9 C 70 % 1017,5 hPa 0,0 l/m 2 min 0 min 0,0 UV-I 248 W/m 18,8 km/h (3 Bft)
08.06.2014 19:32 25,5 C 23,9 C 70 % 1017,5 hPa 0,0 l/m 2 min 0 min 0,0 UV-I 244 W/m 16,7 km/h (3 Bft)
08.06.2014 19:34 25,5 C 23,9 C 69 % 1017,5 hPa 0,0 l/m 2 min 0 min 0,0 UV-I 237 W/m 14,6 km/h (3 Bft)
08.06.2014 19:36 25,4 C 23,9 C 70 % 1017,5 hPa 0,0 l/m 2 min 0 min 0,0 UV-I 234 W/m 12,6 km/h (3 Bft)
08.06.2014 19:38 25,4 C 23,9 C 70 % 1017,5 hPa 0,0 l/m 2 min 0 min 0,0 UV-I 229 W/m 14,6 km/h (3 Bft)
08.06.2014 19:40 25,4 C 23,9 C 70 % 1017,5 hPa 0,0 l/m 2 min 0 min 0,0 UV-I 221 W/m 14,6 km/h (3 Bft)
08.06.2014 19:42 25,4 C 23,3 C 71 % 1017,5 hPa 0,0 l/m 2 min 0 min 0,0 UV-I 218 W/m 14,6 km/h (3 Bft)
08.06.2014 19:44 25,4 C 23,9 C 71 % 1017,5 hPa 0,0 l/m 2 min 0 min 0,0 UV-I 211 W/m 10,5 km/h (2 Bft)
08.06.2014 19:46 25,4 C 23,3 C 71 % 1017,5 hPa 0,0 l/m 2 min 0 min 0,0 UV-I 209 W/m 16,7 km/h (3 Bft)
08.06.2014 19:48 25,4 C 23,9 C 72 % 1017,6 hPa 0,0 l/m 2 min 0 min 0,0 UV-I 204 W/m 14,6 km/h (3 Bft)
08.06.2014 19:50 25,3 C 23,9 C 72 % 1017,6 hPa 0,0 l/m 2 min 0 min 0,0 UV-I 200 W/m 14,6 km/h (3 Bft)
08.06.2014 19:52 25,3 C 23,9 C 72 % 1017,5 hPa 0,0 l/m 2 min 0 min 0,0 UV-I 195 W/m 14,6 km/h (3 Bft)
08.06.2014 19:54 25,3 C 23,3 C 72 % 1017,5 hPa 0,0 l/m 2 min 0 min 0,0 UV-I 190 W/m 12,6 km/h (3 Bft)
08.06.2014 19:56 25,3 C 23,3 C 72 % 1017,5 hPa 0,0 l/m 2 min 0 min 0,0 UV-I 183 W/m 10,5 km/h (2 Bft)
08.06.2014 19:58 25,3 C 23,3 C 72 % 1017,5 hPa 0,0 l/m 2 min 0 min 0,0 UV-I 179 W/m 12,6 km/h (3 Bft)
08.06.2014 20:00 25,3 C 23,3 C 73 % 1017,5 hPa 0,0 l/m 2 min 0 min 0,0 UV-I 176 W/m 8,4 km/h (2 Bft)
08.06.2014 20:02 25,3 C 23,3 C 73 % 1017,5 hPa 0,0 l/m 2 min 0 min 0,0 UV-I 171 W/m 8,4 km/h (2 Bft)
08.06.2014 20:04 25,3 C 23,3 C 73 % 1017,6 hPa 0,0 l/m 2 min 0 min 0,0 UV-I 167 W/m 10,5 km/h (2 Bft)
08.06.2014 20:06 25,3 C 23,3 C 73 % 1017,6 hPa 0,0 l/m 2 min 0 min 0,0 UV-I 162 W/m 10,5 km/h (2 Bft)
08.06.2014 20:08 25,3 C 23,3 C 74 % 1017,5 hPa 0,0 l/m 2 min 0 min 0,0 UV-I 156 W/m 12,6 km/h (3 Bft)
08.06.2014 20:10 25,2 C 23,3 C 74 % 1017,4 hPa 0,0 l/m 2 min 0 min 0,0 UV-I 153 W/m 12,6 km/h (3 Bft)
08.06.2014 20:12 25,2 C 23,3 C 74 % 1017,5 hPa 0,0 l/m 2 min 0 min 0,0 UV-I 149 W/m 12,6 km/h (3 Bft)
08.06.2014 20:14 25,2 C 23,3 C 74 % 1017,5 hPa 0,0 l/m 2 min 0 min 0,0 UV-I 142 W/m 10,5 km/h (2 Bft)
08.06.2014 20:16 25,1 C 23,3 C 74 % 1017,5 hPa 0,0 l/m 2 min 0 min 0,0 UV-I 139 W/m 12,6 km/h (3 Bft)
08.06.2014 20:18 25,1 C 23,3 C 74 % 1017,5 hPa 0,0 l/m 2 min 0 min 0,0 UV-I 134 W/m 16,7 km/h (3 Bft)
08.06.2014 20:20 25,1 C 23,3 C 74 % 1017,5 hPa 0,0 l/m 2 min 0 min 0,0 UV-I 128 W/m 12,6 km/h (3 Bft)
08.06.2014 20:22 25,1 C 23,3 C 74 % 1017,5 hPa 0,0 l/m 2 min 0 min 0,0 UV-I 127 W/m 20,9 km/h (4 Bft)
08.06.2014 20:24 25,1 C 23,3 C 74 % 1017,5 hPa 0,0 l/m 2 min 0 min 0,0 UV-I 120 W/m 16,7 km/h (3 Bft)
08.06.2014 20:26 25,0 C 23,3 C 75 % 1017,5 hPa 0,0 l/m 2 min 0 min 0,0 UV-I 114 W/m 12,6 km/h (3 Bft)
08.06.2014 20:28 24,9 C 23,3 C 75 % 1017,5 hPa 0,0 l/m 2 min 0 min 0,0 UV-I 109 W/m 14,6 km/h (3 Bft)
08.06.2014 20:30 24,9 C 23,3 C 75 % 1017,5 hPa 0,0 l/m 2 min 0 min 0,0 UV-I 105 W/m 18,8 km/h (3 Bft)
08.06.2014 20:32 24,9 C 23,3 C 75 % 1017,5 hPa 0,0 l/m 2 min 0 min 0,0 UV-I 100 W/m 14,6 km/h (3 Bft)
08.06.2014 20:34 24,9 C 22,8 C 75 % 1017,5 hPa 0,0 l/m 2 min 0 min 0,0 UV-I 95 W/m 10,5 km/h (2 Bft)
08.06.2014 20:36 24,8 C 22,8 C 75 % 1017,5 hPa 0,0 l/m 2 min 0 min 0,0 UV-I 91 W/m 16,7 km/h (3 Bft)
08.06.2014 20:38 24,8 C 23,3 C 74 % 1017,5 hPa 0,0 l/m 2 min 0 min 0,0 UV-I 86 W/m 18,8 km/h (3 Bft)
08.06.2014 20:40 24,8 C 23,3 C 75 % 1017,6 hPa 0,0 l/m 2 min 0 min 0,0 UV-I 83 W/m 18,8 km/h (3 Bft)
08.06.2014 20:42 24,8 C 22,8 C 75 % 1017,5 hPa 0,0 l/m 2 min 0 min 0,0 UV-I 83 W/m 18,8 km/h (3 Bft)
08.06.2014 20:44 24,7 C 22,8 C 75 % 1017,6 hPa 0,0 l/m 2 min 0 min 0,0 UV-I 74 W/m 16,7 km/h (3 Bft)
08.06.2014 20:46 24,7 C 22,8 C 75 % 1017,6 hPa 0,0 l/m 2 min 0 min 0,0 UV-I 69 W/m 14,6 km/h (3 Bft)
08.06.2014 20:48 24,7 C 22,8 C 75 % 1017,6 hPa 0,0 l/m 2 min 0 min 0,0 UV-I 67 W/m 16,7 km/h (3 Bft)
08.06.2014 20:50 24,6 C 22,8 C 75 % 1017,6 hPa 0,0 l/m 2 min 0 min 0,0 UV-I 63 W/m 16,7 km/h (3 Bft)
08.06.2014 20:52 24,6 C 22,8 C 75 % 1017,6 hPa 0,0 l/m 2 min 0 min 0,0 UV-I 58 W/m 14,6 km/h (3 Bft)
08.06.2014 20:54 24,5 C 22,8 C 75 % 1017,6 hPa 0,0 l/m 2 min 0 min 0,0 UV-I 56 W/m 14,6 km/h (3 Bft)
08.06.2014 20:56 24,4 C 22,8 C 76 % 1017,6 hPa 0,0 l/m 2 min 0 min 0,0 UV-I 51 W/m 16,7 km/h (3 Bft)
08.06.2014 20:58 24,4 C 22,8 C 76 % 1017,6 hPa 0,0 l/m 2 min 0 min 0,0 UV-I 47 W/m 12,6 km/h (3 Bft)
08.06.2014 21:00 24,3 C 22,8 C 76 % 1017,5 hPa 0,0 l/m 2 min 0 min 0,0 UV-I 47 W/m 14,6 km/h (3 Bft)
08.06.2014 21:02 24,3 C 22,8 C 76 % 1017,6 hPa 0,0 l/m 2 min 0 min 0,0 UV-I 42 W/m 14,6 km/h (3 Bft)
08.06.2014 21:04 24,2 C 22,8 C 77 % 1017,6 hPa 0,0 l/m 2 min 0 min 0,0 UV-I 39 W/m 14,6 km/h (3 Bft)
08.06.2014 21:06 24,2 C 22,2 C 77 % 1017,6 hPa 0,0 l/m 0 min 0 min 0,0 UV-I 35 W/m 12,6 km/h (3 Bft)
08.06.2014 21:08 24,1 C 22,2 C 77 % 1017,6 hPa 0,0 l/m 0 min 0 min 0,0 UV-I 33 W/m 10,5 km/h (2 Bft)
08.06.2014 21:10 24,1 C 22,2 C 77 % 1017,6 hPa 0,0 l/m 0 min 0 min 0,0 UV-I 32 W/m 16,7 km/h (3 Bft)
08.06.2014 21:12 24,0 C 22,2 C 77 % 1017,6 hPa 0,0 l/m 0 min 0 min 0,0 UV-I 28 W/m 10,5 km/h (2 Bft)
08.06.2014 21:14 23,9 C 22,2 C 77 % 1017,6 hPa 0,0 l/m 0 min 0 min 0,0 UV-I 26 W/m 14,6 km/h (3 Bft)
08.06.2014 21:16 23,9 C 22,2 C 77 % 1017,6 hPa 0,0 l/m 0 min 0 min 0,0 UV-I 25 W/m 16,7 km/h (3 Bft)
08.06.2014 21:18 23,9 C 22,2 C 77 % 1017,6 hPa 0,0 l/m 0 min 0 min 0,0 UV-I 23 W/m 10,5 km/h (2 Bft)
08.06.2014 21:20 23,9 C 22,2 C 78 % 1017,6 hPa 0,0 l/m 0 min 0 min 0,0 UV-I 21 W/m 10,5 km/h (2 Bft)
08.06.2014 21:22 23,8 C 22,2 C 78 % 1017,6 hPa 0,0 l/m 0 min 0 min 0,0 UV-I 19 W/m 10,5 km/h (2 Bft)
08.06.2014 21:24 23,8 C 21,7 C 78 % 1017,6 hPa 0,0 l/m 0 min 0 min 0,0 UV-I 18 W/m 10,5 km/h (2 Bft)
08.06.2014 21:26 23,7 C 21,7 C 78 % 1017,6 hPa 0,0 l/m 0 min 0 min 0,0 UV-I 16 W/m 10,5 km/h (2 Bft)
08.06.2014 21:28 23,7 C 21,7 C 78 % 1017,6 hPa 0,0 l/m 0 min 0 min 0,0 UV-I 14 W/m 12,6 km/h (3 Bft)
08.06.2014 21:30 23,7 C 21,7 C 78 % 1017,6 hPa 0,0 l/m 0 min 0 min 0,0 UV-I 12 W/m 8,4 km/h (2 Bft)
08.06.2014 21:32 23,6 C 21,7 C 78 % 1017,6 hPa 0,0 l/m 0 min 0 min 0,0 UV-I 11 W/m 12,6 km/h (3 Bft)
08.06.2014 21:34 23,6 C 21,7 C 78 % 1017,6 hPa 0,0 l/m 0 min 0 min 0,0 UV-I 11 W/m 14,6 km/h (3 Bft)
08.06.2014 21:36 23,5 C 21,7 C 79 % 1017,6 hPa 0,0 l/m 0 min 0 min 0,0 UV-I 9 W/m 8,4 km/h (2 Bft)
08.06.2014 21:38 23,4 C 21,7 C 79 % 1017,6 hPa 0,0 l/m 0 min 0 min 0,0 UV-I 9 W/m 8,4 km/h (2 Bft)
08.06.2014 21:40 23,4 C 21,7 C 79 % 1017,6 hPa 0,0 l/m 0 min 0 min 0,0 UV-I 7 W/m 10,5 km/h (2 Bft)
08.06.2014 21:42 23,3 C 21,7 C 79 % 1017,6 hPa 0,0 l/m 0 min 0 min 0,0 UV-I 7 W/m 8,4 km/h (2 Bft)
08.06.2014 21:44 23,3 C 21,7 C 79 % 1017,7 hPa 0,0 l/m 0 min 0 min 0,0 UV-I 5 W/m 8,4 km/h (2 Bft)
08.06.2014 21:46 23,3 C 21,1 C 80 % 1017,7 hPa 0,0 l/m 0 min 0 min 0,0 UV-I 5 W/m 12,6 km/h (3 Bft)
08.06.2014 21:48 23,2 C 21,1 C 80 % 1017,7 hPa 0,0 l/m 0 min 0 min 0,0 UV-I 5 W/m 8,4 km/h (2 Bft)
08.06.2014 21:50 23,2 C 21,1 C 80 % 1017,7 hPa 0,0 l/m 0 min 0 min 0,0 UV-I 5 W/m 8,4 km/h (2 Bft)
08.06.2014 21:52 23,2 C 21,1 C 80 % 1017,7 hPa 0,0 l/m 0 min 0 min 0,0 UV-I 5 W/m 8,4 km/h (2 Bft)
08.06.2014 21:54 23,1 C 21,1 C 80 % 1017,7 hPa 0,0 l/m 0 min 0 min 0,0 UV-I 0 W/m 10,5 km/h (2 Bft)
08.06.2014 21:56 23,1 C 21,1 C 80 % 1017,7 hPa 0,0 l/m 0 min 0 min 0,0 UV-I 0 W/m 8,4 km/h (2 Bft)
08.06.2014 21:58 23,0 C 21,1 C 81 % 1017,8 hPa 0,0 l/m 0 min 0 min 0,0 UV-I 0 W/m 8,4 km/h (2 Bft)
08.06.2014 22:00 22,9 C 21,1 C 81 % 1017,8 hPa 0,0 l/m 0 min 0 min 0,0 UV-I 0 W/m 6,3 km/h (2 Bft)
08.06.2014 22:02 22,9 C 21,1 C 81 % 1017,8 hPa 0,0 l/m 0 min 0 min 0,0 UV-I 0 W/m 8,4 km/h (2 Bft)
08.06.2014 22:04 22,9 C 21,1 C 81 % 1017,8 hPa 0,0 l/m 0 min 0 min 0,0 UV-I 0 W/m 8,4 km/h (2 Bft)
08.06.2014 22:06 22,9 C 21,1 C 81 % 1017,7 hPa 0,0 l/m 0 min 0 min 0,0 UV-I 0 W/m 8,4 km/h (2 Bft)
08.06.2014 22:08 22,8 C 21,1 C 82 % 1017,8 hPa 0,0 l/m 0 min 0 min 0,0 UV-I 0 W/m 8,4 km/h (2 Bft)
08.06.2014 22:10 22,8 C 21,1 C 82 % 1017,8 hPa 0,0 l/m 0 min 0 min 0,0 UV-I 0 W/m 8,4 km/h (2 Bft)
08.06.2014 22:12 22,8 C 21,1 C 82 % 1017,8 hPa 0,0 l/m 0 min 0 min 0,0 UV-I 0 W/m 10,5 km/h (2 Bft)
08.06.2014 22:14 22,7 C 21,1 C 82 % 1017,8 hPa 0,0 l/m 0 min 0 min 0,0 UV-I 0 W/m 8,4 km/h (2 Bft)
08.06.2014 22:16 22,7 C 21,1 C 82 % 1017,9 hPa 0,0 l/m 0 min 0 min 0,0 UV-I 0 W/m 4,2 km/h (1 Bft)
08.06.2014 22:18 22,7 C 21,1 C 82 % 1017,9 hPa 0,0 l/m 0 min 0 min 0,0 UV-I 0 W/m 6,3 km/h (2 Bft)
08.06.2014 22:20 22,6 C 21,1 C 82 % 1017,9 hPa 0,0 l/m 0 min 0 min 0,0 UV-I 0 W/m 2,1 km/h (1 Bft)
08.06.2014 22:22 22,6 C 21,1 C 82 % 1018,0 hPa 0,0 l/m 0 min 0 min 0,0 UV-I 0 W/m 6,3 km/h (2 Bft)
08.06.2014 22:24 22,6 C 20,6 C 82 % 1017,9 hPa 0,0 l/m 0 min 0 min 0,0 UV-I 0 W/m 8,4 km/h (2 Bft)
08.06.2014 22:26 22,5 C 20,6 C 83 % 1018,0 hPa 0,0 l/m 0 min 0 min 0,0 UV-I 0 W/m 8,4 km/h (2 Bft)
08.06.2014 22:28 22,4 C 20,6 C 83 % 1017,9 hPa 0,0 l/m 0 min 0 min 0,0 UV-I 0 W/m 10,5 km/h (2 Bft)
08.06.2014 22:30 22,4 C 20,6 C 83 % 1017,9 hPa 0,0 l/m 0 min 0 min 0,0 UV-I 0 W/m 8,4 km/h (2 Bft)
08.06.2014 22:32 22,4 C 20,6 C 83 % 1017,9 hPa 0,0 l/m 0 min 0 min 0,0 UV-I 0 W/m 8,4 km/h (2 Bft)
08.06.2014 22:34 22,4 C 20,6 C 83 % 1017,9 hPa 0,0 l/m 0 min 0 min 0,0 UV-I 0 W/m 12,6 km/h (3 Bft)
08.06.2014 22:36 22,3 C 20,6 C 84 % 1017,9 hPa 0,0 l/m 0 min 0 min 0,0 UV-I 0 W/m 10,5 km/h (2 Bft)
08.06.2014 22:38 22,3 C 20,6 C 84 % 1017,9 hPa 0,0 l/m 0 min 0 min 0,0 UV-I 0 W/m 10,5 km/h (2 Bft)
08.06.2014 22:40 22,3 C 20,6 C 84 % 1017,8 hPa 0,0 l/m 0 min 0 min 0,0 UV-I 0 W/m 10,5 km/h (2 Bft)
08.06.2014 22:42 22,2 C 20,6 C 84 % 1017,8 hPa 0,0 l/m 0 min 0 min 0,0 UV-I 0 W/m 8,4 km/h (2 Bft)
08.06.2014 22:44 22,2 C 20,6 C 84 % 1017,9 hPa 0,0 l/m 0 min 0 min 0,0 UV-I 0 W/m 8,4 km/h (2 Bft)
08.06.2014 22:46 22,2 C 20,6 C 84 % 1017,9 hPa 0,0 l/m 0 min 0 min 0,0 UV-I 0 W/m 8,4 km/h (2 Bft)
08.06.2014 22:48 22,2 C 20,6 C 84 % 1017,9 hPa 0,0 l/m 0 min 0 min 0,0 UV-I 0 W/m 6,3 km/h (2 Bft)
08.06.2014 22:50 22,2 C 20,6 C 84 % 1017,8 hPa 0,0 l/m 0 min 0 min 0,0 UV-I 0 W/m 8,4 km/h (2 Bft)
08.06.2014 22:52 22,1 C 20,6 C 84 % 1017,8 hPa 0,0 l/m 0 min 0 min 0,0 UV-I 0 W/m 10,5 km/h (2 Bft)
08.06.2014 22:54 22,1 C 20,6 C 84 % 1017,9 hPa 0,0 l/m 0 min 0 min 0,0 UV-I 0 W/m 10,5 km/h (2 Bft)
08.06.2014 22:56 22,1 C 20,0 C 85 % 1017,8 hPa 0,0 l/m 0 min 0 min 0,0 UV-I 0 W/m 8,4 km/h (2 Bft)
08.06.2014 22:58 22,1 C 20,0 C 85 % 1017,9 hPa 0,0 l/m 0 min 0 min 0,0 UV-I 0 W/m 8,4 km/h (2 Bft)
08.06.2014 23:00 22,0 C 20,6 C 85 % 1017,9 hPa 0,0 l/m 0 min 0 min 0,0 UV-I 0 W/m 10,5 km/h (2 Bft)
08.06.2014 23:02 22,0 C 20,6 C 85 % 1017,9 hPa 0,0 l/m 0 min 0 min 0,0 UV-I 0 W/m 8,4 km/h (2 Bft)
08.06.2014 23:04 21,9 C 20,0 C 85 % 1017,9 hPa 0,0 l/m 0 min 0 min 0,0 UV-I 0 W/m 4,2 km/h (1 Bft)
08.06.2014 23:06 21,8 C 20,0 C 85 % 1017,9 hPa 0,0 l/m 0 min 0 min 0,0 UV-I 0 W/m 2,1 km/h (1 Bft)
08.06.2014 23:08 21,8 C 20,0 C 85 % 1018,0 hPa 0,0 l/m 0 min 0 min 0,0 UV-I 0 W/m 6,3 km/h (2 Bft)
08.06.2014 23:10 21,8 C 20,0 C 86 % 1018,0 hPa 0,0 l/m 0 min 0 min 0,0 UV-I 0 W/m 8,4 km/h (2 Bft)
08.06.2014 23:12 21,7 C 20,0 C 86 % 1018,1 hPa 0,0 l/m 0 min 0 min 0,0 UV-I 0 W/m 6,3 km/h (2 Bft)
08.06.2014 23:14 21,7 C 20,0 C 86 % 1018,0 hPa 0,0 l/m 0 min 0 min 0,0 UV-I 0 W/m 0,0 km/h (0 Bft)
08.06.2014 23:16 21,6 C 20,0 C 86 % 1018,1 hPa 0,0 l/m 0 min 0 min 0,0 UV-I 0 W/m 2,1 km/h (1 Bft)
08.06.2014 23:18 21,5 C 19,4 C 87 % 1018,1 hPa 0,0 l/m 0 min 0 min 0,0 UV-I 0 W/m 0,0 km/h (0 Bft)
08.06.2014 23:20 21,4 C 19,4 C 87 % 1018,0 hPa 0,0 l/m 0 min 0 min 0,0 UV-I 0 W/m 0,0 km/h (0 Bft)
08.06.2014 23:22 21,4 C 19,4 C 87 % 1018,1 hPa 0,0 l/m 0 min 0 min 0,0 UV-I 0 W/m 2,1 km/h (1 Bft)
08.06.2014 23:24 21,3 C 19,4 C 87 % 1018,1 hPa 0,0 l/m 0 min 0 min 0,0 UV-I 0 W/m 0,0 km/h (0 Bft)
08.06.2014 23:26 21,2 C 19,4 C 88 % 1018,1 hPa 0,0 l/m 0 min 0 min 0,0 UV-I 0 W/m 2,1 km/h (1 Bft)
08.06.2014 23:28 21,3 C 19,4 C 88 % 1018,0 hPa 0,0 l/m 0 min 0 min 0,0 UV-I 0 W/m 2,1 km/h (1 Bft)
08.06.2014 23:30 21,3 C 18,9 C 88 % 1018,0 hPa 0,0 l/m 0 min 0 min 0,0 UV-I 0 W/m 0,0 km/h (0 Bft)
08.06.2014 23:32 21,2 C 18,9 C 88 % 1017,9 hPa 0,0 l/m 0 min 0 min 0,0 UV-I 0 W/m 2,1 km/h (1 Bft)
08.06.2014 23:34 21,2 C 18,9 C 88 % 1017,9 hPa 0,0 l/m 0 min 0 min 0,0 UV-I 0 W/m 2,1 km/h (1 Bft)
08.06.2014 23:36 21,2 C 18,9 C 88 % 1018,0 hPa 0,0 l/m 0 min 0 min 0,0 UV-I 0 W/m 6,3 km/h (2 Bft)
08.06.2014 23:38 21,2 C 19,4 C 88 % 1017,9 hPa 0,0 l/m 0 min 0 min 0,0 UV-I 0 W/m 2,1 km/h (1 Bft)
08.06.2014 23:40 21,3 C 19,4 C 88 % 1017,9 hPa 0,0 l/m 0 min 0 min 0,0 UV-I 0 W/m 2,1 km/h (1 Bft)
08.06.2014 23:42 21,3 C 19,4 C 88 % 1017,9 hPa 0,0 l/m 0 min 0 min 0,0 UV-I 0 W/m 0,0 km/h (0 Bft)
08.06.2014 23:44 21,3 C 19,4 C 88 % 1017,9 hPa 0,0 l/m 0 min 0 min 0,0 UV-I 0 W/m 2,1 km/h (1 Bft)
08.06.2014 23:46 21,3 C 19,4 C 88 % 1017,9 hPa 0,0 l/m 0 min 0 min 0,0 UV-I 0 W/m 0,0 km/h (0 Bft)
08.06.2014 23:48 21,3 C 18,9 C 88 % 1017,8 hPa 0,0 l/m 0 min 0 min 0,0 UV-I 0 W/m 2,1 km/h (1 Bft)
08.06.2014 23:50 21,2 C 18,9 C 88 % 1017,9 hPa 0,0 l/m 0 min 0 min 0,0 UV-I 0 W/m 2,1 km/h (1 Bft)
08.06.2014 23:52 21,2 C 18,9 C 88 % 1017,9 hPa 0,0 l/m 0 min 0 min 0,0 UV-I 0 W/m 0,0 km/h (0 Bft)
08.06.2014 23:54 21,1 C 18,9 C 89 % 1017,9 hPa 0,0 l/m 0 min 0 min 0,0 UV-I 0 W/m 0,0 km/h (0 Bft)
08.06.2014 23:56 21,0 C 18,9 C 89 % 1017,9 hPa 0,0 l/m 0 min 0 min 0,0 UV-I 0 W/m 0,0 km/h (0 Bft)
08.06.2014 23:58 21,0 C 18,9 C 89 % 1017,9 hPa 0,0 l/m 0 min 0 min 0,0 UV-I 0 W/m 2,1 km/h (1 Bft)
_ Min-Zeit 11:56 11:24 17:08 00:12 - - - - - 00:00
Minimum _ 17,6 C 15,6 C 66 % 1014,4 hPa - - - - - 0,0 km/h (0 Bft)
_ Max-Zeit 17:18 16:12 02:14 11:08 11:12 06:58 11:08 13:34 14:38 11:10
Maximum _ 26,7 C 26,1 C 97 % 1020,1 hPa 2,8 l/m 2 min 2 min 5,7 UV-I 874 W/m 43,9 km/h
W-SW (6 Bft)
Durchschnitt _ 22,1 C 20,7 C 84 % 1016,9 hPa #10,2 l/m #11:24 h #32 min. 3,1 UV-I 354 W/m 9,2 km/h (2 Bft)
© 2014 W. Hausmann